<?xml version="1.0" encoding="UTF-8" standalone="no" ?>
<gpx xmlns="http://www.topografix.com/GPX/1/1" xmlns:xsi="http://www.w3.org/2001/XMLSchema-instance" xsi:schemaLocation="http://www.topografix.com/GPX/1/1 http://www.topografix.com/GPX/1/1/gpx.xsd" version="1.1" creator="VisuGPX - https://www.visugpx.com">
  <metadata>
    <name>Forêt de Saint-Germain - Route des pavillons</name>
    <desc><![CDATA[MN de 10km]]></desc>
  </metadata>
  <trk>
    <name><![CDATA[Rte des Pavillons_R6]]></name>
    <trkseg>
      <trkpt lat="48.96103" lon="2.12764">
        <ele>29.36</ele>
        <time>2023-03-25T08:03:56Z</time>
      </trkpt>
      <trkpt lat="48.9611" lon="2.12784">
        <ele>30.54</ele>
        <time>2023-03-25T08:32:23Z</time>
      </trkpt>
      <trkpt lat="48.96113" lon="2.12795">
        <ele>30.66</ele>
        <time>2023-03-25T08:32:32Z</time>
      </trkpt>
      <trkpt lat="48.96119" lon="2.12803">
        <ele>31.15</ele>
        <time>2023-03-25T08:32:43Z</time>
      </trkpt>
      <trkpt lat="48.96126" lon="2.12805">
        <ele>30.99</ele>
        <time>2023-03-25T08:32:55Z</time>
      </trkpt>
      <trkpt lat="48.96131" lon="2.12807">
        <ele>30.52</ele>
        <time>2023-03-25T08:33:00Z</time>
      </trkpt>
      <trkpt lat="48.96138" lon="2.12817">
        <ele>30.12</ele>
        <time>2023-03-25T08:33:10Z</time>
      </trkpt>
      <trkpt lat="48.96147" lon="2.12828">
        <ele>30.19</ele>
        <time>2023-03-25T08:33:22Z</time>
      </trkpt>
      <trkpt lat="48.96151" lon="2.12833">
        <ele>30.04</ele>
        <time>2023-03-25T08:33:27Z</time>
      </trkpt>
      <trkpt lat="48.96155" lon="2.12838">
        <ele>30.12</ele>
        <time>2023-03-25T08:33:31Z</time>
      </trkpt>
      <trkpt lat="48.96165" lon="2.12851">
        <ele>30.05</ele>
        <time>2023-03-25T08:33:41Z</time>
      </trkpt>
      <trkpt lat="48.96175" lon="2.12862">
        <ele>29.81</ele>
        <time>2023-03-25T08:33:53Z</time>
      </trkpt>
      <trkpt lat="48.9618" lon="2.12869">
        <ele>29.67</ele>
        <time>2023-03-25T08:33:58Z</time>
      </trkpt>
      <trkpt lat="48.96184" lon="2.12879">
        <ele>30.03</ele>
        <time>2023-03-25T08:34:03Z</time>
      </trkpt>
      <trkpt lat="48.96186" lon="2.12883">
        <ele>29.41</ele>
        <time>2023-03-25T08:34:06Z</time>
      </trkpt>
      <trkpt lat="48.96201" lon="2.12893">
        <ele>29.51</ele>
        <time>2023-03-25T08:34:17Z</time>
      </trkpt>
      <trkpt lat="48.96204" lon="2.12897">
        <ele>28.77</ele>
        <time>2023-03-25T08:34:20Z</time>
      </trkpt>
      <trkpt lat="48.96213" lon="2.12915">
        <ele>28.82</ele>
        <time>2023-03-25T08:34:31Z</time>
      </trkpt>
      <trkpt lat="48.96214" lon="2.12917">
        <ele>28.68</ele>
        <time>2023-03-25T08:34:32Z</time>
      </trkpt>
      <trkpt lat="48.96224" lon="2.12929">
        <ele>28.63</ele>
        <time>2023-03-25T08:34:41Z</time>
      </trkpt>
      <trkpt lat="48.96238" lon="2.12946">
        <ele>28.84</ele>
        <time>2023-03-25T08:34:52Z</time>
      </trkpt>
      <trkpt lat="48.96241" lon="2.12947">
        <ele>28.47</ele>
        <time>2023-03-25T08:34:54Z</time>
      </trkpt>
      <trkpt lat="48.96251" lon="2.12961">
        <ele>28.22</ele>
        <time>2023-03-25T08:35:03Z</time>
      </trkpt>
      <trkpt lat="48.9627" lon="2.12983">
        <ele>28.38</ele>
        <time>2023-03-25T08:35:16Z</time>
      </trkpt>
      <trkpt lat="48.96282" lon="2.12999">
        <ele>28.54</ele>
        <time>2023-03-25T08:35:30Z</time>
      </trkpt>
      <trkpt lat="48.96299" lon="2.13018">
        <ele>28.76</ele>
        <time>2023-03-25T08:35:43Z</time>
      </trkpt>
      <trkpt lat="48.96304" lon="2.13023">
        <ele>28.91</ele>
        <time>2023-03-25T08:35:47Z</time>
      </trkpt>
      <trkpt lat="48.96312" lon="2.13033">
        <ele>28.15</ele>
        <time>2023-03-25T08:35:53Z</time>
      </trkpt>
      <trkpt lat="48.96326" lon="2.1305">
        <ele>28.23</ele>
        <time>2023-03-25T08:36:05Z</time>
      </trkpt>
      <trkpt lat="48.96327" lon="2.13052">
        <ele>27.92</ele>
        <time>2023-03-25T08:36:06Z</time>
      </trkpt>
      <trkpt lat="48.96339" lon="2.1307">
        <ele>27.7</ele>
        <time>2023-03-25T08:36:16Z</time>
      </trkpt>
      <trkpt lat="48.9634" lon="2.13072">
        <ele>27.23</ele>
        <time>2023-03-25T08:36:17Z</time>
      </trkpt>
      <trkpt lat="48.9635" lon="2.13083">
        <ele>27.6</ele>
        <time>2023-03-25T08:36:26Z</time>
      </trkpt>
      <trkpt lat="48.96365" lon="2.13102">
        <ele>27.66</ele>
        <time>2023-03-25T08:36:41Z</time>
      </trkpt>
      <trkpt lat="48.96376" lon="2.13116">
        <ele>27.44</ele>
        <time>2023-03-25T08:36:51Z</time>
      </trkpt>
      <trkpt lat="48.96381" lon="2.1312">
        <ele>27.77</ele>
        <time>2023-03-25T08:36:54Z</time>
      </trkpt>
      <trkpt lat="48.96386" lon="2.13133">
        <ele>27.65</ele>
        <time>2023-03-25T08:37:03Z</time>
      </trkpt>
      <trkpt lat="48.96393" lon="2.13138">
        <ele>27.56</ele>
        <time>2023-03-25T08:37:08Z</time>
      </trkpt>
      <trkpt lat="48.96404" lon="2.13154">
        <ele>27.37</ele>
        <time>2023-03-25T08:37:18Z</time>
      </trkpt>
      <trkpt lat="48.96407" lon="2.1316">
        <ele>27.1</ele>
        <time>2023-03-25T08:37:21Z</time>
      </trkpt>
      <trkpt lat="48.96412" lon="2.13169">
        <ele>27.27</ele>
        <time>2023-03-25T08:37:27Z</time>
      </trkpt>
      <trkpt lat="48.96422" lon="2.13189">
        <ele>27.66</ele>
        <time>2023-03-25T08:37:35Z</time>
      </trkpt>
      <trkpt lat="48.96427" lon="2.13196">
        <ele>27.74</ele>
        <time>2023-03-25T08:37:39Z</time>
      </trkpt>
      <trkpt lat="48.96433" lon="2.13203">
        <ele>27.64</ele>
        <time>2023-03-25T08:37:44Z</time>
      </trkpt>
      <trkpt lat="48.96441" lon="2.13215">
        <ele>27.53</ele>
        <time>2023-03-25T08:37:52Z</time>
      </trkpt>
      <trkpt lat="48.96452" lon="2.13223">
        <ele>27.44</ele>
        <time>2023-03-25T08:38:01Z</time>
      </trkpt>
      <trkpt lat="48.96456" lon="2.13226">
        <ele>27.06</ele>
        <time>2023-03-25T08:38:04Z</time>
      </trkpt>
      <trkpt lat="48.9646" lon="2.13231">
        <ele>27.02</ele>
        <time>2023-03-25T08:38:07Z</time>
      </trkpt>
      <trkpt lat="48.96461" lon="2.13236">
        <ele>26.89</ele>
        <time>2023-03-25T08:38:09Z</time>
      </trkpt>
      <trkpt lat="48.96474" lon="2.13255">
        <ele>26.58</ele>
        <time>2023-03-25T08:38:19Z</time>
      </trkpt>
      <trkpt lat="48.96476" lon="2.13258">
        <ele>26.38</ele>
        <time>2023-03-25T08:38:21Z</time>
      </trkpt>
      <trkpt lat="48.96484" lon="2.13268">
        <ele>26.63</ele>
        <time>2023-03-25T08:38:29Z</time>
      </trkpt>
      <trkpt lat="48.9649" lon="2.13277">
        <ele>26.65</ele>
        <time>2023-03-25T08:38:36Z</time>
      </trkpt>
      <trkpt lat="48.96497" lon="2.13284">
        <ele>26.06</ele>
        <time>2023-03-25T08:38:42Z</time>
      </trkpt>
      <trkpt lat="48.96506" lon="2.13291">
        <ele>25.94</ele>
        <time>2023-03-25T08:38:48Z</time>
      </trkpt>
      <trkpt lat="48.96511" lon="2.133">
        <ele>26.12</ele>
        <time>2023-03-25T08:38:52Z</time>
      </trkpt>
      <trkpt lat="48.9652" lon="2.13313">
        <ele>25.16</ele>
        <time>2023-03-25T08:39:02Z</time>
      </trkpt>
      <trkpt lat="48.96523" lon="2.13315">
        <ele>25.56</ele>
        <time>2023-03-25T08:39:04Z</time>
      </trkpt>
      <trkpt lat="48.96525" lon="2.13323">
        <ele>25.18</ele>
        <time>2023-03-25T08:39:07Z</time>
      </trkpt>
      <trkpt lat="48.96536" lon="2.1334">
        <ele>25.43</ele>
        <time>2023-03-25T08:39:17Z</time>
      </trkpt>
      <trkpt lat="48.96539" lon="2.13343">
        <ele>25.76</ele>
        <time>2023-03-25T08:39:35Z</time>
      </trkpt>
      <trkpt lat="48.96543" lon="2.13341">
        <ele>25</ele>
        <time>2023-03-25T08:39:47Z</time>
      </trkpt>
      <trkpt lat="48.96548" lon="2.13341">
        <ele>24.84</ele>
        <time>2023-03-25T08:40:05Z</time>
      </trkpt>
      <trkpt lat="48.96551" lon="2.13346">
        <ele>24.56</ele>
        <time>2023-03-25T08:40:24Z</time>
      </trkpt>
      <trkpt lat="48.96554" lon="2.13347">
        <ele>25.14</ele>
        <time>2023-03-25T08:40:41Z</time>
      </trkpt>
      <trkpt lat="48.96552" lon="2.13345">
        <ele>24.64</ele>
        <time>2023-03-25T08:40:57Z</time>
      </trkpt>
      <trkpt lat="48.96557" lon="2.13347">
        <ele>23.95</ele>
        <time>2023-03-25T08:41:13Z</time>
      </trkpt>
      <trkpt lat="48.96568" lon="2.13369">
        <ele>25.09</ele>
        <time>2023-03-25T08:41:28Z</time>
      </trkpt>
      <trkpt lat="48.96574" lon="2.13381">
        <ele>25.44</ele>
        <time>2023-03-25T08:41:35Z</time>
      </trkpt>
      <trkpt lat="48.96587" lon="2.13397">
        <ele>25.4</ele>
        <time>2023-03-25T08:41:49Z</time>
      </trkpt>
      <trkpt lat="48.96604" lon="2.13419">
        <ele>25.01</ele>
        <time>2023-03-25T08:42:03Z</time>
      </trkpt>
      <trkpt lat="48.96616" lon="2.13435">
        <ele>25.28</ele>
        <time>2023-03-25T08:42:13Z</time>
      </trkpt>
      <trkpt lat="48.96617" lon="2.13436">
        <ele>24.88</ele>
        <time>2023-03-25T08:42:14Z</time>
      </trkpt>
      <trkpt lat="48.96621" lon="2.13444">
        <ele>24.97</ele>
        <time>2023-03-25T08:42:19Z</time>
      </trkpt>
      <trkpt lat="48.96625" lon="2.1345">
        <ele>25.36</ele>
        <time>2023-03-25T08:42:23Z</time>
      </trkpt>
      <trkpt lat="48.96631" lon="2.13454">
        <ele>25.12</ele>
        <time>2023-03-25T08:42:27Z</time>
      </trkpt>
      <trkpt lat="48.96642" lon="2.13466">
        <ele>25.6</ele>
        <time>2023-03-25T08:42:35Z</time>
      </trkpt>
      <trkpt lat="48.96651" lon="2.1348">
        <ele>25.05</ele>
        <time>2023-03-25T08:42:45Z</time>
      </trkpt>
      <trkpt lat="48.96663" lon="2.13493">
        <ele>25.71</ele>
        <time>2023-03-25T08:42:54Z</time>
      </trkpt>
      <trkpt lat="48.96675" lon="2.13508">
        <ele>25.1</ele>
        <time>2023-03-25T08:43:03Z</time>
      </trkpt>
      <trkpt lat="48.96683" lon="2.13532">
        <ele>25.12</ele>
        <time>2023-03-25T08:43:13Z</time>
      </trkpt>
      <trkpt lat="48.96686" lon="2.13535">
        <ele>24.71</ele>
        <time>2023-03-25T08:43:16Z</time>
      </trkpt>
      <trkpt lat="48.96693" lon="2.13543">
        <ele>25.01</ele>
        <time>2023-03-25T08:43:22Z</time>
      </trkpt>
      <trkpt lat="48.96701" lon="2.1355">
        <ele>24.73</ele>
        <time>2023-03-25T08:43:27Z</time>
      </trkpt>
      <trkpt lat="48.9671" lon="2.13563">
        <ele>24.67</ele>
        <time>2023-03-25T08:43:36Z</time>
      </trkpt>
      <trkpt lat="48.96725" lon="2.1358">
        <ele>26.33</ele>
        <time>2023-03-25T08:43:48Z</time>
      </trkpt>
      <trkpt lat="48.96736" lon="2.13594">
        <ele>25.46</ele>
        <time>2023-03-25T08:43:57Z</time>
      </trkpt>
      <trkpt lat="48.96751" lon="2.13609">
        <ele>24.84</ele>
        <time>2023-03-25T08:44:08Z</time>
      </trkpt>
      <trkpt lat="48.96758" lon="2.13618">
        <ele>25.29</ele>
        <time>2023-03-25T08:44:14Z</time>
      </trkpt>
      <trkpt lat="48.96769" lon="2.13634">
        <ele>24.66</ele>
        <time>2023-03-25T08:44:22Z</time>
      </trkpt>
      <trkpt lat="48.96776" lon="2.13645">
        <ele>24.24</ele>
        <time>2023-03-25T08:44:29Z</time>
      </trkpt>
      <trkpt lat="48.9678" lon="2.13654">
        <ele>24.54</ele>
        <time>2023-03-25T08:44:33Z</time>
      </trkpt>
      <trkpt lat="48.96793" lon="2.13669">
        <ele>25.28</ele>
        <time>2023-03-25T08:44:41Z</time>
      </trkpt>
      <trkpt lat="48.96805" lon="2.13683">
        <ele>24.63</ele>
        <time>2023-03-25T08:44:50Z</time>
      </trkpt>
      <trkpt lat="48.96813" lon="2.1369">
        <ele>24.91</ele>
        <time>2023-03-25T08:44:55Z</time>
      </trkpt>
      <trkpt lat="48.96815" lon="2.13693">
        <ele>24.95</ele>
        <time>2023-03-25T08:44:57Z</time>
      </trkpt>
      <trkpt lat="48.96824" lon="2.13708">
        <ele>24.62</ele>
        <time>2023-03-25T08:45:06Z</time>
      </trkpt>
      <trkpt lat="48.96827" lon="2.13715">
        <ele>25.15</ele>
        <time>2023-03-25T08:45:09Z</time>
      </trkpt>
      <trkpt lat="48.96833" lon="2.13728">
        <ele>24.54</ele>
        <time>2023-03-25T08:45:18Z</time>
      </trkpt>
      <trkpt lat="48.96845" lon="2.1375">
        <ele>23.43</ele>
        <time>2023-03-25T08:45:29Z</time>
      </trkpt>
      <trkpt lat="48.96847" lon="2.13752">
        <ele>23.25</ele>
        <time>2023-03-25T08:45:30Z</time>
      </trkpt>
      <trkpt lat="48.96855" lon="2.13771">
        <ele>23.16</ele>
        <time>2023-03-25T08:45:41Z</time>
      </trkpt>
      <trkpt lat="48.96863" lon="2.13795">
        <ele>22.54</ele>
        <time>2023-03-25T08:45:52Z</time>
      </trkpt>
      <trkpt lat="48.96865" lon="2.13807">
        <ele>22.49</ele>
        <time>2023-03-25T08:45:57Z</time>
      </trkpt>
      <trkpt lat="48.9687" lon="2.13828">
        <ele>23.24</ele>
        <time>2023-03-25T08:46:11Z</time>
      </trkpt>
      <trkpt lat="48.96876" lon="2.13835">
        <ele>23.02</ele>
        <time>2023-03-25T08:46:27Z</time>
      </trkpt>
      <trkpt lat="48.9688" lon="2.13838">
        <ele>22.74</ele>
        <time>2023-03-25T08:46:29Z</time>
      </trkpt>
      <trkpt lat="48.96884" lon="2.13845">
        <ele>22.6</ele>
        <time>2023-03-25T08:46:33Z</time>
      </trkpt>
      <trkpt lat="48.96888" lon="2.13865">
        <ele>22.48</ele>
        <time>2023-03-25T08:46:42Z</time>
      </trkpt>
      <trkpt lat="48.96895" lon="2.13886">
        <ele>22.16</ele>
        <time>2023-03-25T08:46:52Z</time>
      </trkpt>
      <trkpt lat="48.96897" lon="2.13901">
        <ele>21.76</ele>
        <time>2023-03-25T08:46:58Z</time>
      </trkpt>
      <trkpt lat="48.96898" lon="2.1392">
        <ele>22.16</ele>
        <time>2023-03-25T08:47:06Z</time>
      </trkpt>
      <trkpt lat="48.969" lon="2.13946">
        <ele>22.09</ele>
        <time>2023-03-25T08:47:19Z</time>
      </trkpt>
      <trkpt lat="48.96903" lon="2.13972">
        <ele>21.4</ele>
        <time>2023-03-25T08:47:32Z</time>
      </trkpt>
      <trkpt lat="48.96903" lon="2.1398">
        <ele>21.13</ele>
        <time>2023-03-25T08:47:35Z</time>
      </trkpt>
      <trkpt lat="48.96906" lon="2.13984">
        <ele>21.44</ele>
        <time>2023-03-25T08:47:37Z</time>
      </trkpt>
      <trkpt lat="48.96905" lon="2.14008">
        <ele>20.86</ele>
        <time>2023-03-25T08:47:47Z</time>
      </trkpt>
      <trkpt lat="48.96904" lon="2.14028">
        <ele>20.2</ele>
        <time>2023-03-25T08:47:55Z</time>
      </trkpt>
      <trkpt lat="48.96905" lon="2.14057">
        <ele>19.94</ele>
        <time>2023-03-25T08:48:09Z</time>
      </trkpt>
      <trkpt lat="48.96907" lon="2.14071">
        <ele>20.43</ele>
        <time>2023-03-25T08:48:17Z</time>
      </trkpt>
      <trkpt lat="48.96907" lon="2.14073">
        <ele>19.67</ele>
        <time>2023-03-25T08:48:18Z</time>
      </trkpt>
      <trkpt lat="48.9691" lon="2.14099">
        <ele>19.87</ele>
        <time>2023-03-25T08:48:29Z</time>
      </trkpt>
      <trkpt lat="48.96909" lon="2.14104">
        <ele>19.42</ele>
        <time>2023-03-25T08:48:31Z</time>
      </trkpt>
      <trkpt lat="48.96909" lon="2.14114">
        <ele>18.92</ele>
        <time>2023-03-25T08:48:35Z</time>
      </trkpt>
      <trkpt lat="48.9691" lon="2.14137">
        <ele>18.73</ele>
        <time>2023-03-25T08:48:44Z</time>
      </trkpt>
      <trkpt lat="48.96912" lon="2.1416">
        <ele>18.11</ele>
        <time>2023-03-25T08:48:53Z</time>
      </trkpt>
      <trkpt lat="48.96912" lon="2.1418">
        <ele>18.61</ele>
        <time>2023-03-25T08:49:03Z</time>
      </trkpt>
      <trkpt lat="48.96912" lon="2.14188">
        <ele>18.23</ele>
        <time>2023-03-25T08:49:07Z</time>
      </trkpt>
      <trkpt lat="48.96913" lon="2.14213">
        <ele>18.15</ele>
        <time>2023-03-25T08:49:16Z</time>
      </trkpt>
      <trkpt lat="48.96915" lon="2.14231">
        <ele>17.79</ele>
        <time>2023-03-25T08:49:24Z</time>
      </trkpt>
      <trkpt lat="48.96916" lon="2.14247">
        <ele>17.01</ele>
        <time>2023-03-25T08:49:30Z</time>
      </trkpt>
      <trkpt lat="48.96916" lon="2.14258">
        <ele>17.04</ele>
        <time>2023-03-25T08:49:35Z</time>
      </trkpt>
      <trkpt lat="48.96917" lon="2.14277">
        <ele>17.11</ele>
        <time>2023-03-25T08:49:44Z</time>
      </trkpt>
      <trkpt lat="48.9692" lon="2.14296">
        <ele>16.86</ele>
        <time>2023-03-25T08:49:53Z</time>
      </trkpt>
      <trkpt lat="48.96924" lon="2.14323">
        <ele>16.88</ele>
        <time>2023-03-25T08:50:05Z</time>
      </trkpt>
      <trkpt lat="48.96926" lon="2.1433">
        <ele>16.07</ele>
        <time>2023-03-25T08:50:21Z</time>
      </trkpt>
      <trkpt lat="48.96927" lon="2.14334">
        <ele>15.79</ele>
        <time>2023-03-25T08:50:23Z</time>
      </trkpt>
      <trkpt lat="48.96932" lon="2.14346">
        <ele>15.95</ele>
        <time>2023-03-25T08:50:31Z</time>
      </trkpt>
      <trkpt lat="48.96933" lon="2.14351">
        <ele>15.98</ele>
        <time>2023-03-25T08:50:48Z</time>
      </trkpt>
      <trkpt lat="48.96932" lon="2.14349">
        <ele>15.68</ele>
        <time>2023-03-25T08:51:00Z</time>
      </trkpt>
      <trkpt lat="48.96933" lon="2.14352">
        <ele>14.28</ele>
        <time>2023-03-25T08:51:19Z</time>
      </trkpt>
      <trkpt lat="48.96934" lon="2.14353">
        <ele>13.72</ele>
        <time>2023-03-25T08:51:37Z</time>
      </trkpt>
      <trkpt lat="48.96936" lon="2.14354">
        <ele>15.66</ele>
        <time>2023-03-25T08:51:55Z</time>
      </trkpt>
      <trkpt lat="48.96938" lon="2.14366">
        <ele>14.78</ele>
        <time>2023-03-25T08:52:08Z</time>
      </trkpt>
      <trkpt lat="48.96942" lon="2.14383">
        <ele>13.83</ele>
        <time>2023-03-25T08:52:17Z</time>
      </trkpt>
      <trkpt lat="48.96945" lon="2.14404">
        <ele>14.09</ele>
        <time>2023-03-25T08:52:30Z</time>
      </trkpt>
      <trkpt lat="48.96947" lon="2.1442">
        <ele>13.67</ele>
        <time>2023-03-25T08:52:41Z</time>
      </trkpt>
      <trkpt lat="48.96948" lon="2.14453">
        <ele>13.37</ele>
        <time>2023-03-25T08:52:54Z</time>
      </trkpt>
      <trkpt lat="48.96948" lon="2.14484">
        <ele>12.61</ele>
        <time>2023-03-25T08:53:07Z</time>
      </trkpt>
      <trkpt lat="48.96948" lon="2.14517">
        <ele>12.34</ele>
        <time>2023-03-25T08:53:21Z</time>
      </trkpt>
      <trkpt lat="48.96951" lon="2.14555">
        <ele>12.56</ele>
        <time>2023-03-25T08:53:38Z</time>
      </trkpt>
      <trkpt lat="48.96951" lon="2.14569">
        <ele>12.15</ele>
        <time>2023-03-25T08:53:43Z</time>
      </trkpt>
      <trkpt lat="48.96952" lon="2.14593">
        <ele>12.28</ele>
        <time>2023-03-25T08:53:54Z</time>
      </trkpt>
      <trkpt lat="48.96952" lon="2.14623">
        <ele>12.43</ele>
        <time>2023-03-25T08:54:05Z</time>
      </trkpt>
      <trkpt lat="48.96954" lon="2.14632">
        <ele>12.04</ele>
        <time>2023-03-25T08:54:09Z</time>
      </trkpt>
      <trkpt lat="48.96958" lon="2.14649">
        <ele>10.96</ele>
        <time>2023-03-25T08:54:18Z</time>
      </trkpt>
      <trkpt lat="48.96959" lon="2.14657">
        <ele>11.18</ele>
        <time>2023-03-25T08:54:21Z</time>
      </trkpt>
      <trkpt lat="48.96965" lon="2.1468">
        <ele>11.46</ele>
        <time>2023-03-25T08:54:30Z</time>
      </trkpt>
      <trkpt lat="48.96962" lon="2.1469">
        <ele>10.79</ele>
        <time>2023-03-25T08:54:35Z</time>
      </trkpt>
      <trkpt lat="48.96962" lon="2.14701">
        <ele>10.65</ele>
        <time>2023-03-25T08:54:40Z</time>
      </trkpt>
      <trkpt lat="48.96963" lon="2.1471">
        <ele>10.36</ele>
        <time>2023-03-25T08:54:43Z</time>
      </trkpt>
      <trkpt lat="48.96961" lon="2.14731">
        <ele>10.71</ele>
        <time>2023-03-25T08:54:53Z</time>
      </trkpt>
      <trkpt lat="48.96959" lon="2.14758">
        <ele>11</ele>
        <time>2023-03-25T08:55:06Z</time>
      </trkpt>
      <trkpt lat="48.96962" lon="2.14768">
        <ele>11.52</ele>
        <time>2023-03-25T08:55:11Z</time>
      </trkpt>
      <trkpt lat="48.96965" lon="2.14799">
        <ele>10.79</ele>
        <time>2023-03-25T08:55:25Z</time>
      </trkpt>
      <trkpt lat="48.96966" lon="2.14803">
        <ele>10.68</ele>
        <time>2023-03-25T08:55:26Z</time>
      </trkpt>
      <trkpt lat="48.96973" lon="2.14836">
        <ele>9.69</ele>
        <time>2023-03-25T08:55:41Z</time>
      </trkpt>
      <trkpt lat="48.96971" lon="2.14861">
        <ele>9.87</ele>
        <time>2023-03-25T08:55:52Z</time>
      </trkpt>
      <trkpt lat="48.96968" lon="2.14896">
        <ele>9.77</ele>
        <time>2023-03-25T08:56:08Z</time>
      </trkpt>
      <trkpt lat="48.96966" lon="2.149">
        <ele>9.54</ele>
        <time>2023-03-25T08:56:10Z</time>
      </trkpt>
      <trkpt lat="48.96966" lon="2.14933">
        <ele>9.84</ele>
        <time>2023-03-25T08:56:24Z</time>
      </trkpt>
      <trkpt lat="48.96967" lon="2.14964">
        <ele>9.59</ele>
        <time>2023-03-25T08:56:38Z</time>
      </trkpt>
      <trkpt lat="48.96967" lon="2.14983">
        <ele>9.07</ele>
        <time>2023-03-25T08:56:46Z</time>
      </trkpt>
      <trkpt lat="48.96969" lon="2.15009">
        <ele>8.7</ele>
        <time>2023-03-25T08:56:57Z</time>
      </trkpt>
      <trkpt lat="48.96969" lon="2.15018">
        <ele>8.66</ele>
        <time>2023-03-25T08:57:00Z</time>
      </trkpt>
      <trkpt lat="48.96973" lon="2.15051">
        <ele>8.21</ele>
        <time>2023-03-25T08:57:14Z</time>
      </trkpt>
      <trkpt lat="48.96979" lon="2.15075">
        <ele>7.61</ele>
        <time>2023-03-25T08:57:24Z</time>
      </trkpt>
      <trkpt lat="48.96979" lon="2.15078">
        <ele>8.04</ele>
        <time>2023-03-25T08:57:25Z</time>
      </trkpt>
      <trkpt lat="48.96983" lon="2.15098">
        <ele>8.58</ele>
        <time>2023-03-25T08:57:33Z</time>
      </trkpt>
      <trkpt lat="48.96984" lon="2.15129">
        <ele>7.53</ele>
        <time>2023-03-25T08:57:48Z</time>
      </trkpt>
      <trkpt lat="48.96982" lon="2.15158">
        <ele>6.94</ele>
        <time>2023-03-25T08:58:03Z</time>
      </trkpt>
      <trkpt lat="48.96982" lon="2.15159">
        <ele>6.91</ele>
        <time>2023-03-25T08:58:04Z</time>
      </trkpt>
      <trkpt lat="48.96984" lon="2.15165">
        <ele>6.43</ele>
        <time>2023-03-25T08:58:23Z</time>
      </trkpt>
      <trkpt lat="48.96988" lon="2.15165">
        <ele>7.07</ele>
        <time>2023-03-25T08:58:41Z</time>
      </trkpt>
      <trkpt lat="48.9699" lon="2.15168">
        <ele>6.86</ele>
        <time>2023-03-25T08:58:59Z</time>
      </trkpt>
      <trkpt lat="48.96992" lon="2.15171">
        <ele>6.14</ele>
        <time>2023-03-25T08:59:18Z</time>
      </trkpt>
      <trkpt lat="48.96993" lon="2.15172">
        <ele>8.01</ele>
        <time>2023-03-25T08:59:31Z</time>
      </trkpt>
      <trkpt lat="48.96992" lon="2.1517">
        <ele>6.94</ele>
        <time>2023-03-25T08:59:50Z</time>
      </trkpt>
      <trkpt lat="48.96994" lon="2.15168">
        <ele>7.36</ele>
        <time>2023-03-25T09:00:07Z</time>
      </trkpt>
      <trkpt lat="48.96995" lon="2.15168">
        <ele>6.69</ele>
        <time>2023-03-25T09:00:25Z</time>
      </trkpt>
      <trkpt lat="48.96995" lon="2.1517">
        <ele>7.67</ele>
        <time>2023-03-25T09:00:39Z</time>
      </trkpt>
      <trkpt lat="48.97003" lon="2.15174">
        <ele>7.67</ele>
        <time>2023-03-25T09:00:50Z</time>
      </trkpt>
      <trkpt lat="48.97009" lon="2.15181">
        <ele>7.89</ele>
        <time>2023-03-25T09:00:58Z</time>
      </trkpt>
      <trkpt lat="48.97016" lon="2.15193">
        <ele>8.03</ele>
        <time>2023-03-25T09:01:12Z</time>
      </trkpt>
      <trkpt lat="48.97026" lon="2.15203">
        <ele>7.89</ele>
        <time>2023-03-25T09:01:27Z</time>
      </trkpt>
      <trkpt lat="48.97028" lon="2.15209">
        <ele>7.92</ele>
        <time>2023-03-25T09:01:31Z</time>
      </trkpt>
      <trkpt lat="48.97038" lon="2.15233">
        <ele>8.05</ele>
        <time>2023-03-25T09:01:42Z</time>
      </trkpt>
      <trkpt lat="48.97044" lon="2.1524">
        <ele>7.92</ele>
        <time>2023-03-25T09:01:46Z</time>
      </trkpt>
      <trkpt lat="48.97052" lon="2.15245">
        <ele>8.32</ele>
        <time>2023-03-25T09:01:53Z</time>
      </trkpt>
      <trkpt lat="48.97064" lon="2.15253">
        <ele>8.33</ele>
        <time>2023-03-25T09:02:01Z</time>
      </trkpt>
      <trkpt lat="48.97067" lon="2.15256">
        <ele>8.63</ele>
        <time>2023-03-25T09:02:04Z</time>
      </trkpt>
      <trkpt lat="48.97069" lon="2.15264">
        <ele>8.03</ele>
        <time>2023-03-25T09:02:08Z</time>
      </trkpt>
      <trkpt lat="48.97073" lon="2.15271">
        <ele>8.37</ele>
        <time>2023-03-25T09:02:14Z</time>
      </trkpt>
      <trkpt lat="48.97088" lon="2.15284">
        <ele>8.33</ele>
        <time>2023-03-25T09:02:24Z</time>
      </trkpt>
      <trkpt lat="48.97092" lon="2.15289">
        <ele>8.39</ele>
        <time>2023-03-25T09:02:27Z</time>
      </trkpt>
      <trkpt lat="48.97101" lon="2.153">
        <ele>8.88</ele>
        <time>2023-03-25T09:02:33Z</time>
      </trkpt>
      <trkpt lat="48.97111" lon="2.15311">
        <ele>9.75</ele>
        <time>2023-03-25T09:02:41Z</time>
      </trkpt>
      <trkpt lat="48.97117" lon="2.15315">
        <ele>9.03</ele>
        <time>2023-03-25T09:02:45Z</time>
      </trkpt>
      <trkpt lat="48.97123" lon="2.15325">
        <ele>9.04</ele>
        <time>2023-03-25T09:02:53Z</time>
      </trkpt>
      <trkpt lat="48.97139" lon="2.15334">
        <ele>10.04</ele>
        <time>2023-03-25T09:03:04Z</time>
      </trkpt>
      <trkpt lat="48.97147" lon="2.15338">
        <ele>9.53</ele>
        <time>2023-03-25T09:03:17Z</time>
      </trkpt>
      <trkpt lat="48.97153" lon="2.15337">
        <ele>9.66</ele>
        <time>2023-03-25T09:03:33Z</time>
      </trkpt>
      <trkpt lat="48.97154" lon="2.15337">
        <ele>9.88</ele>
        <time>2023-03-25T09:03:34Z</time>
      </trkpt>
      <trkpt lat="48.97169" lon="2.15339">
        <ele>10.05</ele>
        <time>2023-03-25T09:03:44Z</time>
      </trkpt>
      <trkpt lat="48.97173" lon="2.15342">
        <ele>9.78</ele>
        <time>2023-03-25T09:03:47Z</time>
      </trkpt>
      <trkpt lat="48.97187" lon="2.1535">
        <ele>9.88</ele>
        <time>2023-03-25T09:03:57Z</time>
      </trkpt>
      <trkpt lat="48.97197" lon="2.15347">
        <ele>9.35</ele>
        <time>2023-03-25T09:04:04Z</time>
      </trkpt>
      <trkpt lat="48.97206" lon="2.15351">
        <ele>8.83</ele>
        <time>2023-03-25T09:04:10Z</time>
      </trkpt>
      <trkpt lat="48.97214" lon="2.15356">
        <ele>9.53</ele>
        <time>2023-03-25T09:04:16Z</time>
      </trkpt>
      <trkpt lat="48.97222" lon="2.15364">
        <ele>10.11</ele>
        <time>2023-03-25T09:04:24Z</time>
      </trkpt>
      <trkpt lat="48.9723" lon="2.15364">
        <ele>10.23</ele>
        <time>2023-03-25T09:04:30Z</time>
      </trkpt>
      <trkpt lat="48.97247" lon="2.15366">
        <ele>9.51</ele>
        <time>2023-03-25T09:04:40Z</time>
      </trkpt>
      <trkpt lat="48.97259" lon="2.15369">
        <ele>9.47</ele>
        <time>2023-03-25T09:04:49Z</time>
      </trkpt>
      <trkpt lat="48.9726" lon="2.1537">
        <ele>9.47</ele>
        <time>2023-03-25T09:04:50Z</time>
      </trkpt>
      <trkpt lat="48.97262" lon="2.15371">
        <ele>9.7</ele>
        <time>2023-03-25T09:04:51Z</time>
      </trkpt>
      <trkpt lat="48.97263" lon="2.15372">
        <ele>9.59</ele>
        <time>2023-03-25T09:04:52Z</time>
      </trkpt>
      <trkpt lat="48.97264" lon="2.15373">
        <ele>9.24</ele>
        <time>2023-03-25T09:04:53Z</time>
      </trkpt>
      <trkpt lat="48.97265" lon="2.15374">
        <ele>9.12</ele>
        <time>2023-03-25T09:04:54Z</time>
      </trkpt>
      <trkpt lat="48.97273" lon="2.15385">
        <ele>9.71</ele>
        <time>2023-03-25T09:05:03Z</time>
      </trkpt>
      <trkpt lat="48.97274" lon="2.15386">
        <ele>9.2</ele>
        <time>2023-03-25T09:05:04Z</time>
      </trkpt>
      <trkpt lat="48.9728" lon="2.1539">
        <ele>10.33</ele>
        <time>2023-03-25T09:05:09Z</time>
      </trkpt>
      <trkpt lat="48.97288" lon="2.1539">
        <ele>10.05</ele>
        <time>2023-03-25T09:05:17Z</time>
      </trkpt>
      <trkpt lat="48.973" lon="2.15381">
        <ele>10.3</ele>
        <time>2023-03-25T09:05:25Z</time>
      </trkpt>
      <trkpt lat="48.97311" lon="2.15387">
        <ele>10.42</ele>
        <time>2023-03-25T09:05:33Z</time>
      </trkpt>
      <trkpt lat="48.97318" lon="2.15398">
        <ele>10.46</ele>
        <time>2023-03-25T09:05:42Z</time>
      </trkpt>
      <trkpt lat="48.97319" lon="2.15399">
        <ele>10.26</ele>
        <time>2023-03-25T09:05:43Z</time>
      </trkpt>
      <trkpt lat="48.97325" lon="2.15404">
        <ele>9.85</ele>
        <time>2023-03-25T09:05:47Z</time>
      </trkpt>
      <trkpt lat="48.97339" lon="2.15405">
        <ele>10.14</ele>
        <time>2023-03-25T09:05:57Z</time>
      </trkpt>
      <trkpt lat="48.97354" lon="2.154">
        <ele>10.56</ele>
        <time>2023-03-25T09:06:06Z</time>
      </trkpt>
      <trkpt lat="48.97358" lon="2.15397">
        <ele>10.55</ele>
        <time>2023-03-25T09:06:09Z</time>
      </trkpt>
      <trkpt lat="48.97362" lon="2.15385">
        <ele>10.67</ele>
        <time>2023-03-25T09:06:15Z</time>
      </trkpt>
      <trkpt lat="48.97372" lon="2.15372">
        <ele>10.93</ele>
        <time>2023-03-25T09:06:23Z</time>
      </trkpt>
      <trkpt lat="48.97376" lon="2.15359">
        <ele>11.01</ele>
        <time>2023-03-25T09:06:30Z</time>
      </trkpt>
      <trkpt lat="48.9738" lon="2.15353">
        <ele>11.04</ele>
        <time>2023-03-25T09:06:33Z</time>
      </trkpt>
      <trkpt lat="48.97384" lon="2.15342">
        <ele>10.55</ele>
        <time>2023-03-25T09:06:39Z</time>
      </trkpt>
      <trkpt lat="48.97399" lon="2.15342">
        <ele>10.54</ele>
        <time>2023-03-25T09:06:51Z</time>
      </trkpt>
      <trkpt lat="48.97402" lon="2.15343">
        <ele>11.33</ele>
        <time>2023-03-25T09:06:55Z</time>
      </trkpt>
      <trkpt lat="48.97406" lon="2.15343">
        <ele>11.02</ele>
        <time>2023-03-25T09:06:59Z</time>
      </trkpt>
      <trkpt lat="48.97411" lon="2.1534">
        <ele>10.93</ele>
        <time>2023-03-25T09:07:03Z</time>
      </trkpt>
      <trkpt lat="48.97422" lon="2.15342">
        <ele>11.08</ele>
        <time>2023-03-25T09:07:12Z</time>
      </trkpt>
      <trkpt lat="48.97424" lon="2.15345">
        <ele>10.95</ele>
        <time>2023-03-25T09:07:14Z</time>
      </trkpt>
      <trkpt lat="48.97434" lon="2.15339">
        <ele>9.68</ele>
        <time>2023-03-25T09:07:22Z</time>
      </trkpt>
      <trkpt lat="48.97436" lon="2.15328">
        <ele>12.13</ele>
        <time>2023-03-25T09:07:26Z</time>
      </trkpt>
      <trkpt lat="48.97437" lon="2.15326">
        <ele>12.3</ele>
        <time>2023-03-25T09:07:27Z</time>
      </trkpt>
      <trkpt lat="48.97438" lon="2.15323">
        <ele>11.97</ele>
        <time>2023-03-25T09:07:28Z</time>
      </trkpt>
      <trkpt lat="48.97439" lon="2.15322">
        <ele>12.08</ele>
        <time>2023-03-25T09:07:29Z</time>
      </trkpt>
      <trkpt lat="48.97441" lon="2.15321">
        <ele>12.58</ele>
        <time>2023-03-25T09:07:30Z</time>
      </trkpt>
      <trkpt lat="48.97442" lon="2.1532">
        <ele>12.47</ele>
        <time>2023-03-25T09:07:31Z</time>
      </trkpt>
      <trkpt lat="48.97443" lon="2.1532">
        <ele>12.15</ele>
        <time>2023-03-25T09:07:32Z</time>
      </trkpt>
      <trkpt lat="48.97445" lon="2.1532">
        <ele>11.43</ele>
        <time>2023-03-25T09:07:33Z</time>
      </trkpt>
      <trkpt lat="48.97452" lon="2.1532">
        <ele>11.97</ele>
        <time>2023-03-25T09:07:37Z</time>
      </trkpt>
      <trkpt lat="48.97466" lon="2.15311">
        <ele>10.96</ele>
        <time>2023-03-25T09:07:47Z</time>
      </trkpt>
      <trkpt lat="48.97467" lon="2.15309">
        <ele>11.83</ele>
        <time>2023-03-25T09:07:48Z</time>
      </trkpt>
      <trkpt lat="48.97467" lon="2.15306">
        <ele>11.18</ele>
        <time>2023-03-25T09:07:49Z</time>
      </trkpt>
      <trkpt lat="48.97468" lon="2.15304">
        <ele>11.34</ele>
        <time>2023-03-25T09:07:50Z</time>
      </trkpt>
      <trkpt lat="48.97468" lon="2.15303">
        <ele>12.54</ele>
        <time>2023-03-25T09:07:51Z</time>
      </trkpt>
      <trkpt lat="48.97469" lon="2.15301">
        <ele>11.83</ele>
        <time>2023-03-25T09:07:52Z</time>
      </trkpt>
      <trkpt lat="48.97469" lon="2.153">
        <ele>11.31</ele>
        <time>2023-03-25T09:07:53Z</time>
      </trkpt>
      <trkpt lat="48.97471" lon="2.15298">
        <ele>12.01</ele>
        <time>2023-03-25T09:07:54Z</time>
      </trkpt>
      <trkpt lat="48.97471" lon="2.15297">
        <ele>11.96</ele>
        <time>2023-03-25T09:07:55Z</time>
      </trkpt>
      <trkpt lat="48.97472" lon="2.15295">
        <ele>12.04</ele>
        <time>2023-03-25T09:07:56Z</time>
      </trkpt>
      <trkpt lat="48.97473" lon="2.15293">
        <ele>11.84</ele>
        <time>2023-03-25T09:07:57Z</time>
      </trkpt>
      <trkpt lat="48.97474" lon="2.15292">
        <ele>11.74</ele>
        <time>2023-03-25T09:07:58Z</time>
      </trkpt>
      <trkpt lat="48.97475" lon="2.1529">
        <ele>12.19</ele>
        <time>2023-03-25T09:07:59Z</time>
      </trkpt>
      <trkpt lat="48.97475" lon="2.15288">
        <ele>12.3</ele>
        <time>2023-03-25T09:08:00Z</time>
      </trkpt>
      <trkpt lat="48.97476" lon="2.15286">
        <ele>12.17</ele>
        <time>2023-03-25T09:08:01Z</time>
      </trkpt>
      <trkpt lat="48.97477" lon="2.15284">
        <ele>11.62</ele>
        <time>2023-03-25T09:08:02Z</time>
      </trkpt>
      <trkpt lat="48.97478" lon="2.15282">
        <ele>12.54</ele>
        <time>2023-03-25T09:08:03Z</time>
      </trkpt>
      <trkpt lat="48.97477" lon="2.1528">
        <ele>12.67</ele>
        <time>2023-03-25T09:08:04Z</time>
      </trkpt>
      <trkpt lat="48.97478" lon="2.15277">
        <ele>12.59</ele>
        <time>2023-03-25T09:08:05Z</time>
      </trkpt>
      <trkpt lat="48.97478" lon="2.15275">
        <ele>12.84</ele>
        <time>2023-03-25T09:08:06Z</time>
      </trkpt>
      <trkpt lat="48.97479" lon="2.15274">
        <ele>12.94</ele>
        <time>2023-03-25T09:08:07Z</time>
      </trkpt>
      <trkpt lat="48.9748" lon="2.15272">
        <ele>12.82</ele>
        <time>2023-03-25T09:08:08Z</time>
      </trkpt>
      <trkpt lat="48.97481" lon="2.1527">
        <ele>12.92</ele>
        <time>2023-03-25T09:08:09Z</time>
      </trkpt>
      <trkpt lat="48.97481" lon="2.15255">
        <ele>11.5</ele>
        <time>2023-03-25T09:08:19Z</time>
      </trkpt>
      <trkpt lat="48.97479" lon="2.1524">
        <ele>11.8</ele>
        <time>2023-03-25T09:08:30Z</time>
      </trkpt>
      <trkpt lat="48.97478" lon="2.15238">
        <ele>11.87</ele>
        <time>2023-03-25T09:08:31Z</time>
      </trkpt>
      <trkpt lat="48.97483" lon="2.15221">
        <ele>13.48</ele>
        <time>2023-03-25T09:08:40Z</time>
      </trkpt>
      <trkpt lat="48.97488" lon="2.15217">
        <ele>13.03</ele>
        <time>2023-03-25T09:08:44Z</time>
      </trkpt>
      <trkpt lat="48.97489" lon="2.15217">
        <ele>12.77</ele>
        <time>2023-03-25T09:08:45Z</time>
      </trkpt>
      <trkpt lat="48.97492" lon="2.15213">
        <ele>12.97</ele>
        <time>2023-03-25T09:08:48Z</time>
      </trkpt>
      <trkpt lat="48.97494" lon="2.15212">
        <ele>12.87</ele>
        <time>2023-03-25T09:08:49Z</time>
      </trkpt>
      <trkpt lat="48.97503" lon="2.15206">
        <ele>13.11</ele>
        <time>2023-03-25T09:08:56Z</time>
      </trkpt>
      <trkpt lat="48.97506" lon="2.15205">
        <ele>13.07</ele>
        <time>2023-03-25T09:08:58Z</time>
      </trkpt>
      <trkpt lat="48.97507" lon="2.15203">
        <ele>12.88</ele>
        <time>2023-03-25T09:08:59Z</time>
      </trkpt>
      <trkpt lat="48.97509" lon="2.15201">
        <ele>12.96</ele>
        <time>2023-03-25T09:09:00Z</time>
      </trkpt>
      <trkpt lat="48.9751" lon="2.152">
        <ele>12.9</ele>
        <time>2023-03-25T09:09:01Z</time>
      </trkpt>
      <trkpt lat="48.97512" lon="2.15195">
        <ele>12.74</ele>
        <time>2023-03-25T09:09:04Z</time>
      </trkpt>
      <trkpt lat="48.97512" lon="2.15193">
        <ele>12.89</ele>
        <time>2023-03-25T09:09:05Z</time>
      </trkpt>
      <trkpt lat="48.97512" lon="2.15186">
        <ele>12.55</ele>
        <time>2023-03-25T09:09:09Z</time>
      </trkpt>
      <trkpt lat="48.97512" lon="2.15184">
        <ele>12.53</ele>
        <time>2023-03-25T09:09:10Z</time>
      </trkpt>
      <trkpt lat="48.97512" lon="2.1517">
        <ele>14.62</ele>
        <time>2023-03-25T09:09:17Z</time>
      </trkpt>
      <trkpt lat="48.97512" lon="2.15156">
        <ele>12.59</ele>
        <time>2023-03-25T09:09:28Z</time>
      </trkpt>
      <trkpt lat="48.97511" lon="2.15128">
        <ele>12.63</ele>
        <time>2023-03-25T09:09:43Z</time>
      </trkpt>
      <trkpt lat="48.97516" lon="2.15116">
        <ele>12.11</ele>
        <time>2023-03-25T09:09:50Z</time>
      </trkpt>
      <trkpt lat="48.97519" lon="2.15099">
        <ele>11.4</ele>
        <time>2023-03-25T09:10:01Z</time>
      </trkpt>
      <trkpt lat="48.97521" lon="2.15092">
        <ele>12</ele>
        <time>2023-03-25T09:10:05Z</time>
      </trkpt>
      <trkpt lat="48.97533" lon="2.15077">
        <ele>11.63</ele>
        <time>2023-03-25T09:10:15Z</time>
      </trkpt>
      <trkpt lat="48.97538" lon="2.15073">
        <ele>12.43</ele>
        <time>2023-03-25T09:10:19Z</time>
      </trkpt>
      <trkpt lat="48.97544" lon="2.15067">
        <ele>12.51</ele>
        <time>2023-03-25T09:10:24Z</time>
      </trkpt>
      <trkpt lat="48.97551" lon="2.15051">
        <ele>11.94</ele>
        <time>2023-03-25T09:10:33Z</time>
      </trkpt>
      <trkpt lat="48.97554" lon="2.1504">
        <ele>12.09</ele>
        <time>2023-03-25T09:10:38Z</time>
      </trkpt>
      <trkpt lat="48.9756" lon="2.15022">
        <ele>11.64</ele>
        <time>2023-03-25T09:10:48Z</time>
      </trkpt>
      <trkpt lat="48.97569" lon="2.15006">
        <ele>11.82</ele>
        <time>2023-03-25T09:10:57Z</time>
      </trkpt>
      <trkpt lat="48.97571" lon="2.15001">
        <ele>12.7</ele>
        <time>2023-03-25T09:10:59Z</time>
      </trkpt>
      <trkpt lat="48.97574" lon="2.14994">
        <ele>11.85</ele>
        <time>2023-03-25T09:11:04Z</time>
      </trkpt>
      <trkpt lat="48.97575" lon="2.14989">
        <ele>12</ele>
        <time>2023-03-25T09:11:07Z</time>
      </trkpt>
      <trkpt lat="48.97576" lon="2.14987">
        <ele>12</ele>
        <time>2023-03-25T09:11:08Z</time>
      </trkpt>
      <trkpt lat="48.97578" lon="2.14985">
        <ele>12.21</ele>
        <time>2023-03-25T09:11:09Z</time>
      </trkpt>
      <trkpt lat="48.97582" lon="2.14981">
        <ele>12</ele>
        <time>2023-03-25T09:11:12Z</time>
      </trkpt>
      <trkpt lat="48.97583" lon="2.1498">
        <ele>12.27</ele>
        <time>2023-03-25T09:11:13Z</time>
      </trkpt>
      <trkpt lat="48.97595" lon="2.14969">
        <ele>12.12</ele>
        <time>2023-03-25T09:11:24Z</time>
      </trkpt>
      <trkpt lat="48.97596" lon="2.14968">
        <ele>12.28</ele>
        <time>2023-03-25T09:11:25Z</time>
      </trkpt>
      <trkpt lat="48.97597" lon="2.14966">
        <ele>11.71</ele>
        <time>2023-03-25T09:11:26Z</time>
      </trkpt>
      <trkpt lat="48.97598" lon="2.14964">
        <ele>11.71</ele>
        <time>2023-03-25T09:11:27Z</time>
      </trkpt>
      <trkpt lat="48.976" lon="2.14962">
        <ele>12.04</ele>
        <time>2023-03-25T09:11:28Z</time>
      </trkpt>
      <trkpt lat="48.97601" lon="2.14959">
        <ele>11.97</ele>
        <time>2023-03-25T09:11:29Z</time>
      </trkpt>
      <trkpt lat="48.97602" lon="2.14955">
        <ele>11.81</ele>
        <time>2023-03-25T09:11:30Z</time>
      </trkpt>
      <trkpt lat="48.97604" lon="2.14952">
        <ele>12.03</ele>
        <time>2023-03-25T09:11:31Z</time>
      </trkpt>
      <trkpt lat="48.97611" lon="2.1494">
        <ele>11.85</ele>
        <time>2023-03-25T09:11:37Z</time>
      </trkpt>
      <trkpt lat="48.97612" lon="2.14938">
        <ele>12.05</ele>
        <time>2023-03-25T09:11:38Z</time>
      </trkpt>
      <trkpt lat="48.97613" lon="2.14936">
        <ele>12.44</ele>
        <time>2023-03-25T09:11:39Z</time>
      </trkpt>
      <trkpt lat="48.97615" lon="2.14934">
        <ele>12.18</ele>
        <time>2023-03-25T09:11:40Z</time>
      </trkpt>
      <trkpt lat="48.97616" lon="2.14933">
        <ele>11.76</ele>
        <time>2023-03-25T09:11:41Z</time>
      </trkpt>
      <trkpt lat="48.97625" lon="2.14919">
        <ele>12.02</ele>
        <time>2023-03-25T09:11:50Z</time>
      </trkpt>
      <trkpt lat="48.97632" lon="2.14913">
        <ele>12.19</ele>
        <time>2023-03-25T09:11:55Z</time>
      </trkpt>
      <trkpt lat="48.97633" lon="2.14912">
        <ele>12.48</ele>
        <time>2023-03-25T09:11:56Z</time>
      </trkpt>
      <trkpt lat="48.97634" lon="2.1491">
        <ele>12.64</ele>
        <time>2023-03-25T09:11:57Z</time>
      </trkpt>
      <trkpt lat="48.97635" lon="2.14905">
        <ele>12.33</ele>
        <time>2023-03-25T09:12:00Z</time>
      </trkpt>
      <trkpt lat="48.97639" lon="2.14899">
        <ele>12.25</ele>
        <time>2023-03-25T09:12:04Z</time>
      </trkpt>
      <trkpt lat="48.97645" lon="2.14889">
        <ele>12.28</ele>
        <time>2023-03-25T09:12:11Z</time>
      </trkpt>
      <trkpt lat="48.97646" lon="2.14887">
        <ele>12.18</ele>
        <time>2023-03-25T09:12:12Z</time>
      </trkpt>
      <trkpt lat="48.97648" lon="2.14886">
        <ele>12.06</ele>
        <time>2023-03-25T09:12:13Z</time>
      </trkpt>
      <trkpt lat="48.97649" lon="2.14884">
        <ele>12.7</ele>
        <time>2023-03-25T09:12:14Z</time>
      </trkpt>
      <trkpt lat="48.97651" lon="2.14882">
        <ele>13.06</ele>
        <time>2023-03-25T09:12:15Z</time>
      </trkpt>
      <trkpt lat="48.97653" lon="2.1488">
        <ele>12.62</ele>
        <time>2023-03-25T09:12:16Z</time>
      </trkpt>
      <trkpt lat="48.97655" lon="2.14874">
        <ele>13.18</ele>
        <time>2023-03-25T09:12:19Z</time>
      </trkpt>
      <trkpt lat="48.97656" lon="2.14872">
        <ele>12.28</ele>
        <time>2023-03-25T09:12:20Z</time>
      </trkpt>
      <trkpt lat="48.97658" lon="2.14865">
        <ele>12.34</ele>
        <time>2023-03-25T09:12:23Z</time>
      </trkpt>
      <trkpt lat="48.9766" lon="2.14863">
        <ele>12.31</ele>
        <time>2023-03-25T09:12:24Z</time>
      </trkpt>
      <trkpt lat="48.97668" lon="2.14853">
        <ele>13.02</ele>
        <time>2023-03-25T09:12:31Z</time>
      </trkpt>
      <trkpt lat="48.97669" lon="2.14849">
        <ele>13.05</ele>
        <time>2023-03-25T09:12:33Z</time>
      </trkpt>
      <trkpt lat="48.97669" lon="2.14847">
        <ele>12.85</ele>
        <time>2023-03-25T09:12:34Z</time>
      </trkpt>
      <trkpt lat="48.97673" lon="2.14827">
        <ele>12.35</ele>
        <time>2023-03-25T09:12:47Z</time>
      </trkpt>
      <trkpt lat="48.97678" lon="2.14807">
        <ele>12.24</ele>
        <time>2023-03-25T09:12:59Z</time>
      </trkpt>
      <trkpt lat="48.97678" lon="2.14805">
        <ele>12.04</ele>
        <time>2023-03-25T09:13:00Z</time>
      </trkpt>
      <trkpt lat="48.97679" lon="2.14802">
        <ele>11.75</ele>
        <time>2023-03-25T09:13:01Z</time>
      </trkpt>
      <trkpt lat="48.97684" lon="2.1478">
        <ele>11.79</ele>
        <time>2023-03-25T09:13:12Z</time>
      </trkpt>
      <trkpt lat="48.97691" lon="2.14757">
        <ele>11.37</ele>
        <time>2023-03-25T09:13:19Z</time>
      </trkpt>
      <trkpt lat="48.97704" lon="2.14738">
        <ele>13.13</ele>
        <time>2023-03-25T09:13:28Z</time>
      </trkpt>
      <trkpt lat="48.97704" lon="2.14735">
        <ele>12.99</ele>
        <time>2023-03-25T09:13:29Z</time>
      </trkpt>
      <trkpt lat="48.97705" lon="2.14733">
        <ele>12.71</ele>
        <time>2023-03-25T09:13:30Z</time>
      </trkpt>
      <trkpt lat="48.97706" lon="2.14731">
        <ele>12.48</ele>
        <time>2023-03-25T09:13:31Z</time>
      </trkpt>
      <trkpt lat="48.97707" lon="2.14729">
        <ele>12.03</ele>
        <time>2023-03-25T09:13:32Z</time>
      </trkpt>
      <trkpt lat="48.97707" lon="2.14727">
        <ele>11.88</ele>
        <time>2023-03-25T09:13:33Z</time>
      </trkpt>
      <trkpt lat="48.97707" lon="2.14725">
        <ele>11.81</ele>
        <time>2023-03-25T09:13:34Z</time>
      </trkpt>
      <trkpt lat="48.97708" lon="2.14723">
        <ele>11.27</ele>
        <time>2023-03-25T09:13:35Z</time>
      </trkpt>
      <trkpt lat="48.97711" lon="2.14718">
        <ele>11.37</ele>
        <time>2023-03-25T09:13:37Z</time>
      </trkpt>
      <trkpt lat="48.97712" lon="2.14716">
        <ele>11.21</ele>
        <time>2023-03-25T09:13:38Z</time>
      </trkpt>
      <trkpt lat="48.97714" lon="2.14715">
        <ele>11.19</ele>
        <time>2023-03-25T09:13:39Z</time>
      </trkpt>
      <trkpt lat="48.97717" lon="2.14711">
        <ele>12.27</ele>
        <time>2023-03-25T09:13:42Z</time>
      </trkpt>
      <trkpt lat="48.97719" lon="2.14704">
        <ele>11.96</ele>
        <time>2023-03-25T09:13:46Z</time>
      </trkpt>
      <trkpt lat="48.9772" lon="2.14703">
        <ele>12.04</ele>
        <time>2023-03-25T09:13:47Z</time>
      </trkpt>
      <trkpt lat="48.97721" lon="2.147">
        <ele>11.7</ele>
        <time>2023-03-25T09:13:48Z</time>
      </trkpt>
      <trkpt lat="48.97722" lon="2.14698">
        <ele>11.34</ele>
        <time>2023-03-25T09:13:49Z</time>
      </trkpt>
      <trkpt lat="48.97723" lon="2.14695">
        <ele>11.11</ele>
        <time>2023-03-25T09:13:50Z</time>
      </trkpt>
      <trkpt lat="48.97724" lon="2.14693">
        <ele>10.59</ele>
        <time>2023-03-25T09:13:51Z</time>
      </trkpt>
      <trkpt lat="48.97724" lon="2.14691">
        <ele>10.76</ele>
        <time>2023-03-25T09:13:52Z</time>
      </trkpt>
      <trkpt lat="48.97724" lon="2.14688">
        <ele>11.08</ele>
        <time>2023-03-25T09:13:53Z</time>
      </trkpt>
      <trkpt lat="48.97727" lon="2.14675">
        <ele>11.86</ele>
        <time>2023-03-25T09:13:59Z</time>
      </trkpt>
      <trkpt lat="48.97728" lon="2.14672">
        <ele>11.71</ele>
        <time>2023-03-25T09:14:01Z</time>
      </trkpt>
      <trkpt lat="48.97728" lon="2.1467">
        <ele>11.94</ele>
        <time>2023-03-25T09:14:02Z</time>
      </trkpt>
      <trkpt lat="48.9773" lon="2.14663">
        <ele>11.95</ele>
        <time>2023-03-25T09:14:06Z</time>
      </trkpt>
      <trkpt lat="48.97731" lon="2.14662">
        <ele>11.95</ele>
        <time>2023-03-25T09:14:07Z</time>
      </trkpt>
      <trkpt lat="48.97733" lon="2.14661">
        <ele>11.44</ele>
        <time>2023-03-25T09:14:08Z</time>
      </trkpt>
      <trkpt lat="48.97735" lon="2.14658">
        <ele>11.63</ele>
        <time>2023-03-25T09:14:10Z</time>
      </trkpt>
      <trkpt lat="48.97744" lon="2.14642">
        <ele>11.78</ele>
        <time>2023-03-25T09:14:17Z</time>
      </trkpt>
      <trkpt lat="48.97744" lon="2.14639">
        <ele>11.46</ele>
        <time>2023-03-25T09:14:18Z</time>
      </trkpt>
      <trkpt lat="48.97746" lon="2.14634">
        <ele>11.77</ele>
        <time>2023-03-25T09:14:21Z</time>
      </trkpt>
      <trkpt lat="48.97747" lon="2.14632">
        <ele>11.43</ele>
        <time>2023-03-25T09:14:22Z</time>
      </trkpt>
      <trkpt lat="48.97748" lon="2.1463">
        <ele>11.74</ele>
        <time>2023-03-25T09:14:23Z</time>
      </trkpt>
      <trkpt lat="48.97749" lon="2.14628">
        <ele>11.26</ele>
        <time>2023-03-25T09:14:24Z</time>
      </trkpt>
      <trkpt lat="48.9775" lon="2.14626">
        <ele>11.82</ele>
        <time>2023-03-25T09:14:25Z</time>
      </trkpt>
      <trkpt lat="48.97751" lon="2.14625">
        <ele>11.45</ele>
        <time>2023-03-25T09:14:26Z</time>
      </trkpt>
      <trkpt lat="48.97755" lon="2.14616">
        <ele>11.66</ele>
        <time>2023-03-25T09:14:32Z</time>
      </trkpt>
      <trkpt lat="48.97756" lon="2.14613">
        <ele>11.49</ele>
        <time>2023-03-25T09:14:33Z</time>
      </trkpt>
      <trkpt lat="48.97758" lon="2.14607">
        <ele>11.25</ele>
        <time>2023-03-25T09:14:35Z</time>
      </trkpt>
      <trkpt lat="48.97759" lon="2.14606">
        <ele>11.13</ele>
        <time>2023-03-25T09:14:36Z</time>
      </trkpt>
      <trkpt lat="48.97759" lon="2.14603">
        <ele>11.43</ele>
        <time>2023-03-25T09:14:37Z</time>
      </trkpt>
      <trkpt lat="48.9776" lon="2.14601">
        <ele>11.4</ele>
        <time>2023-03-25T09:14:38Z</time>
      </trkpt>
      <trkpt lat="48.97761" lon="2.14599">
        <ele>10.89</ele>
        <time>2023-03-25T09:14:39Z</time>
      </trkpt>
      <trkpt lat="48.97763" lon="2.14596">
        <ele>10.78</ele>
        <time>2023-03-25T09:14:40Z</time>
      </trkpt>
      <trkpt lat="48.97764" lon="2.14594">
        <ele>10.78</ele>
        <time>2023-03-25T09:14:41Z</time>
      </trkpt>
      <trkpt lat="48.97766" lon="2.14592">
        <ele>11.41</ele>
        <time>2023-03-25T09:14:42Z</time>
      </trkpt>
      <trkpt lat="48.9777" lon="2.14587">
        <ele>11.37</ele>
        <time>2023-03-25T09:14:45Z</time>
      </trkpt>
      <trkpt lat="48.97772" lon="2.14585">
        <ele>11.07</ele>
        <time>2023-03-25T09:14:46Z</time>
      </trkpt>
      <trkpt lat="48.97777" lon="2.14574">
        <ele>10.94</ele>
        <time>2023-03-25T09:14:51Z</time>
      </trkpt>
      <trkpt lat="48.97778" lon="2.14572">
        <ele>11.16</ele>
        <time>2023-03-25T09:14:52Z</time>
      </trkpt>
      <trkpt lat="48.97779" lon="2.14571">
        <ele>10.63</ele>
        <time>2023-03-25T09:14:53Z</time>
      </trkpt>
      <trkpt lat="48.97779" lon="2.14568">
        <ele>11.07</ele>
        <time>2023-03-25T09:14:54Z</time>
      </trkpt>
      <trkpt lat="48.97779" lon="2.14567">
        <ele>11.1</ele>
        <time>2023-03-25T09:14:55Z</time>
      </trkpt>
      <trkpt lat="48.97779" lon="2.14565">
        <ele>10.5</ele>
        <time>2023-03-25T09:14:56Z</time>
      </trkpt>
      <trkpt lat="48.9778" lon="2.14563">
        <ele>10.7</ele>
        <time>2023-03-25T09:14:57Z</time>
      </trkpt>
      <trkpt lat="48.97789" lon="2.14547">
        <ele>10.96</ele>
        <time>2023-03-25T09:15:05Z</time>
      </trkpt>
      <trkpt lat="48.9779" lon="2.14546">
        <ele>11.1</ele>
        <time>2023-03-25T09:15:06Z</time>
      </trkpt>
      <trkpt lat="48.97792" lon="2.14544">
        <ele>12.07</ele>
        <time>2023-03-25T09:15:07Z</time>
      </trkpt>
      <trkpt lat="48.97793" lon="2.14543">
        <ele>11.3</ele>
        <time>2023-03-25T09:15:08Z</time>
      </trkpt>
      <trkpt lat="48.97794" lon="2.14542">
        <ele>11.8</ele>
        <time>2023-03-25T09:15:09Z</time>
      </trkpt>
      <trkpt lat="48.97795" lon="2.14541">
        <ele>11.41</ele>
        <time>2023-03-25T09:15:10Z</time>
      </trkpt>
      <trkpt lat="48.97796" lon="2.14539">
        <ele>11.21</ele>
        <time>2023-03-25T09:15:11Z</time>
      </trkpt>
      <trkpt lat="48.97805" lon="2.14523">
        <ele>10.47</ele>
        <time>2023-03-25T09:15:21Z</time>
      </trkpt>
      <trkpt lat="48.97805" lon="2.14521">
        <ele>11.08</ele>
        <time>2023-03-25T09:15:22Z</time>
      </trkpt>
      <trkpt lat="48.97807" lon="2.14519">
        <ele>10.5</ele>
        <time>2023-03-25T09:15:23Z</time>
      </trkpt>
      <trkpt lat="48.9781" lon="2.14516">
        <ele>10.97</ele>
        <time>2023-03-25T09:15:25Z</time>
      </trkpt>
      <trkpt lat="48.97812" lon="2.14515">
        <ele>11.59</ele>
        <time>2023-03-25T09:15:26Z</time>
      </trkpt>
      <trkpt lat="48.97816" lon="2.14511">
        <ele>11.41</ele>
        <time>2023-03-25T09:15:29Z</time>
      </trkpt>
      <trkpt lat="48.97817" lon="2.14505">
        <ele>11.22</ele>
        <time>2023-03-25T09:15:32Z</time>
      </trkpt>
      <trkpt lat="48.97821" lon="2.1449">
        <ele>11.07</ele>
        <time>2023-03-25T09:15:40Z</time>
      </trkpt>
      <trkpt lat="48.97822" lon="2.14488">
        <ele>11.21</ele>
        <time>2023-03-25T09:15:41Z</time>
      </trkpt>
      <trkpt lat="48.97823" lon="2.14486">
        <ele>11.19</ele>
        <time>2023-03-25T09:15:42Z</time>
      </trkpt>
      <trkpt lat="48.97824" lon="2.14484">
        <ele>11.1</ele>
        <time>2023-03-25T09:15:43Z</time>
      </trkpt>
      <trkpt lat="48.97826" lon="2.14472">
        <ele>11.02</ele>
        <time>2023-03-25T09:15:49Z</time>
      </trkpt>
      <trkpt lat="48.97835" lon="2.14454">
        <ele>10.86</ele>
        <time>2023-03-25T09:15:59Z</time>
      </trkpt>
      <trkpt lat="48.97843" lon="2.14439">
        <ele>10.8</ele>
        <time>2023-03-25T09:16:09Z</time>
      </trkpt>
      <trkpt lat="48.97843" lon="2.14438">
        <ele>10.98</ele>
        <time>2023-03-25T09:16:10Z</time>
      </trkpt>
      <trkpt lat="48.97844" lon="2.14436">
        <ele>11.13</ele>
        <time>2023-03-25T09:16:11Z</time>
      </trkpt>
      <trkpt lat="48.97845" lon="2.14434">
        <ele>11.54</ele>
        <time>2023-03-25T09:16:12Z</time>
      </trkpt>
      <trkpt lat="48.97851" lon="2.14414">
        <ele>10.64</ele>
        <time>2023-03-25T09:16:24Z</time>
      </trkpt>
      <trkpt lat="48.97853" lon="2.14407">
        <ele>10.57</ele>
        <time>2023-03-25T09:16:27Z</time>
      </trkpt>
      <trkpt lat="48.97859" lon="2.14397">
        <ele>10.53</ele>
        <time>2023-03-25T09:16:32Z</time>
      </trkpt>
      <trkpt lat="48.9786" lon="2.14395">
        <ele>10.84</ele>
        <time>2023-03-25T09:16:33Z</time>
      </trkpt>
      <trkpt lat="48.97861" lon="2.14391">
        <ele>10.55</ele>
        <time>2023-03-25T09:16:34Z</time>
      </trkpt>
      <trkpt lat="48.97863" lon="2.14388">
        <ele>10.53</ele>
        <time>2023-03-25T09:16:35Z</time>
      </trkpt>
      <trkpt lat="48.97864" lon="2.14384">
        <ele>10.82</ele>
        <time>2023-03-25T09:16:37Z</time>
      </trkpt>
      <trkpt lat="48.97864" lon="2.1438">
        <ele>10.52</ele>
        <time>2023-03-25T09:16:39Z</time>
      </trkpt>
      <trkpt lat="48.97867" lon="2.14365">
        <ele>10.22</ele>
        <time>2023-03-25T09:16:47Z</time>
      </trkpt>
      <trkpt lat="48.97878" lon="2.14352">
        <ele>10.15</ele>
        <time>2023-03-25T09:16:55Z</time>
      </trkpt>
      <trkpt lat="48.9788" lon="2.1435">
        <ele>10.28</ele>
        <time>2023-03-25T09:16:56Z</time>
      </trkpt>
      <trkpt lat="48.97888" lon="2.1434">
        <ele>10.16</ele>
        <time>2023-03-25T09:17:04Z</time>
      </trkpt>
      <trkpt lat="48.97891" lon="2.14331">
        <ele>9.96</ele>
        <time>2023-03-25T09:17:09Z</time>
      </trkpt>
      <trkpt lat="48.97892" lon="2.14327">
        <ele>9.8</ele>
        <time>2023-03-25T09:17:11Z</time>
      </trkpt>
      <trkpt lat="48.97904" lon="2.14298">
        <ele>8.95</ele>
        <time>2023-03-25T09:17:26Z</time>
      </trkpt>
      <trkpt lat="48.9791" lon="2.14278">
        <ele>10.09</ele>
        <time>2023-03-25T09:17:35Z</time>
      </trkpt>
      <trkpt lat="48.97911" lon="2.14275">
        <ele>9.71</ele>
        <time>2023-03-25T09:17:36Z</time>
      </trkpt>
      <trkpt lat="48.97912" lon="2.14273">
        <ele>9.99</ele>
        <time>2023-03-25T09:17:37Z</time>
      </trkpt>
      <trkpt lat="48.97913" lon="2.1427">
        <ele>10.22</ele>
        <time>2023-03-25T09:17:38Z</time>
      </trkpt>
      <trkpt lat="48.97914" lon="2.14267">
        <ele>10.08</ele>
        <time>2023-03-25T09:17:39Z</time>
      </trkpt>
      <trkpt lat="48.97915" lon="2.14265">
        <ele>10.51</ele>
        <time>2023-03-25T09:17:40Z</time>
      </trkpt>
      <trkpt lat="48.97916" lon="2.14263">
        <ele>9.93</ele>
        <time>2023-03-25T09:17:41Z</time>
      </trkpt>
      <trkpt lat="48.97926" lon="2.14245">
        <ele>9.72</ele>
        <time>2023-03-25T09:17:49Z</time>
      </trkpt>
      <trkpt lat="48.97936" lon="2.14227">
        <ele>10.46</ele>
        <time>2023-03-25T09:17:58Z</time>
      </trkpt>
      <trkpt lat="48.97941" lon="2.1421">
        <ele>9.64</ele>
        <time>2023-03-25T09:18:07Z</time>
      </trkpt>
      <trkpt lat="48.97943" lon="2.14201">
        <ele>9.78</ele>
        <time>2023-03-25T09:18:11Z</time>
      </trkpt>
      <trkpt lat="48.97944" lon="2.14199">
        <ele>9.4</ele>
        <time>2023-03-25T09:18:12Z</time>
      </trkpt>
      <trkpt lat="48.97944" lon="2.14197">
        <ele>10.3</ele>
        <time>2023-03-25T09:18:13Z</time>
      </trkpt>
      <trkpt lat="48.97943" lon="2.14195">
        <ele>10.21</ele>
        <time>2023-03-25T09:18:14Z</time>
      </trkpt>
      <trkpt lat="48.97949" lon="2.14183">
        <ele>9.64</ele>
        <time>2023-03-25T09:18:21Z</time>
      </trkpt>
      <trkpt lat="48.9795" lon="2.14179">
        <ele>9.49</ele>
        <time>2023-03-25T09:18:23Z</time>
      </trkpt>
      <trkpt lat="48.9795" lon="2.14176">
        <ele>9.75</ele>
        <time>2023-03-25T09:18:24Z</time>
      </trkpt>
      <trkpt lat="48.97956" lon="2.14159">
        <ele>9.91</ele>
        <time>2023-03-25T09:18:30Z</time>
      </trkpt>
      <trkpt lat="48.97955" lon="2.14156">
        <ele>10.01</ele>
        <time>2023-03-25T09:18:31Z</time>
      </trkpt>
      <trkpt lat="48.97956" lon="2.14154">
        <ele>9.53</ele>
        <time>2023-03-25T09:18:32Z</time>
      </trkpt>
      <trkpt lat="48.97969" lon="2.14123">
        <ele>9.15</ele>
        <time>2023-03-25T09:18:47Z</time>
      </trkpt>
      <trkpt lat="48.97969" lon="2.14121">
        <ele>9.39</ele>
        <time>2023-03-25T09:18:48Z</time>
      </trkpt>
      <trkpt lat="48.97973" lon="2.14115">
        <ele>9.49</ele>
        <time>2023-03-25T09:18:51Z</time>
      </trkpt>
      <trkpt lat="48.97974" lon="2.14113">
        <ele>9.07</ele>
        <time>2023-03-25T09:18:52Z</time>
      </trkpt>
      <trkpt lat="48.97975" lon="2.1411">
        <ele>9.17</ele>
        <time>2023-03-25T09:18:53Z</time>
      </trkpt>
      <trkpt lat="48.97976" lon="2.14108">
        <ele>9.7</ele>
        <time>2023-03-25T09:18:54Z</time>
      </trkpt>
      <trkpt lat="48.97978" lon="2.14105">
        <ele>9.09</ele>
        <time>2023-03-25T09:18:55Z</time>
      </trkpt>
      <trkpt lat="48.97979" lon="2.14103">
        <ele>9.55</ele>
        <time>2023-03-25T09:18:56Z</time>
      </trkpt>
      <trkpt lat="48.97988" lon="2.14089">
        <ele>9.27</ele>
        <time>2023-03-25T09:19:05Z</time>
      </trkpt>
      <trkpt lat="48.97991" lon="2.14078">
        <ele>8.43</ele>
        <time>2023-03-25T09:19:12Z</time>
      </trkpt>
      <trkpt lat="48.97992" lon="2.14076">
        <ele>8.81</ele>
        <time>2023-03-25T09:19:13Z</time>
      </trkpt>
      <trkpt lat="48.97993" lon="2.14051">
        <ele>8.61</ele>
        <time>2023-03-25T09:19:25Z</time>
      </trkpt>
      <trkpt lat="48.97994" lon="2.1404">
        <ele>8.84</ele>
        <time>2023-03-25T09:19:29Z</time>
      </trkpt>
      <trkpt lat="48.97994" lon="2.14038">
        <ele>8.33</ele>
        <time>2023-03-25T09:19:30Z</time>
      </trkpt>
      <trkpt lat="48.97995" lon="2.14035">
        <ele>9.27</ele>
        <time>2023-03-25T09:19:31Z</time>
      </trkpt>
      <trkpt lat="48.97995" lon="2.14032">
        <ele>8.91</ele>
        <time>2023-03-25T09:19:32Z</time>
      </trkpt>
      <trkpt lat="48.97995" lon="2.14029">
        <ele>8.62</ele>
        <time>2023-03-25T09:19:33Z</time>
      </trkpt>
      <trkpt lat="48.97994" lon="2.1402">
        <ele>9.05</ele>
        <time>2023-03-25T09:19:36Z</time>
      </trkpt>
      <trkpt lat="48.97994" lon="2.14016">
        <ele>8.96</ele>
        <time>2023-03-25T09:19:38Z</time>
      </trkpt>
      <trkpt lat="48.97995" lon="2.14014">
        <ele>9</ele>
        <time>2023-03-25T09:19:39Z</time>
      </trkpt>
      <trkpt lat="48.97996" lon="2.14012">
        <ele>8.74</ele>
        <time>2023-03-25T09:19:40Z</time>
      </trkpt>
      <trkpt lat="48.97997" lon="2.1401">
        <ele>8.91</ele>
        <time>2023-03-25T09:19:41Z</time>
      </trkpt>
      <trkpt lat="48.98001" lon="2.13997">
        <ele>9.29</ele>
        <time>2023-03-25T09:19:47Z</time>
      </trkpt>
      <trkpt lat="48.98002" lon="2.13994">
        <ele>9.02</ele>
        <time>2023-03-25T09:19:48Z</time>
      </trkpt>
      <trkpt lat="48.98003" lon="2.13992">
        <ele>8.93</ele>
        <time>2023-03-25T09:19:49Z</time>
      </trkpt>
      <trkpt lat="48.98006" lon="2.13986">
        <ele>9.08</ele>
        <time>2023-03-25T09:19:52Z</time>
      </trkpt>
      <trkpt lat="48.98018" lon="2.13971">
        <ele>8.87</ele>
        <time>2023-03-25T09:20:01Z</time>
      </trkpt>
      <trkpt lat="48.98019" lon="2.13964">
        <ele>8.41</ele>
        <time>2023-03-25T09:20:04Z</time>
      </trkpt>
      <trkpt lat="48.98018" lon="2.13962">
        <ele>8.34</ele>
        <time>2023-03-25T09:20:05Z</time>
      </trkpt>
      <trkpt lat="48.98019" lon="2.1396">
        <ele>8.77</ele>
        <time>2023-03-25T09:20:06Z</time>
      </trkpt>
      <trkpt lat="48.98018" lon="2.13959">
        <ele>8.4</ele>
        <time>2023-03-25T09:20:07Z</time>
      </trkpt>
      <trkpt lat="48.9802" lon="2.13952">
        <ele>8.68</ele>
        <time>2023-03-25T09:20:11Z</time>
      </trkpt>
      <trkpt lat="48.9803" lon="2.13936">
        <ele>9.97</ele>
        <time>2023-03-25T09:20:19Z</time>
      </trkpt>
      <trkpt lat="48.98032" lon="2.13934">
        <ele>9.92</ele>
        <time>2023-03-25T09:20:20Z</time>
      </trkpt>
      <trkpt lat="48.98034" lon="2.13932">
        <ele>9.89</ele>
        <time>2023-03-25T09:20:21Z</time>
      </trkpt>
      <trkpt lat="48.98043" lon="2.13914">
        <ele>9.79</ele>
        <time>2023-03-25T09:20:35Z</time>
      </trkpt>
      <trkpt lat="48.98045" lon="2.13899">
        <ele>9.95</ele>
        <time>2023-03-25T09:20:49Z</time>
      </trkpt>
      <trkpt lat="48.98042" lon="2.13894">
        <ele>9.68</ele>
        <time>2023-03-25T09:20:57Z</time>
      </trkpt>
      <trkpt lat="48.98041" lon="2.13893">
        <ele>10.98</ele>
        <time>2023-03-25T09:21:01Z</time>
      </trkpt>
      <trkpt lat="48.9804" lon="2.13878">
        <ele>9.83</ele>
        <time>2023-03-25T09:21:16Z</time>
      </trkpt>
      <trkpt lat="48.98042" lon="2.13874">
        <ele>10.29</ele>
        <time>2023-03-25T09:21:33Z</time>
      </trkpt>
      <trkpt lat="48.98043" lon="2.13872">
        <ele>9.67</ele>
        <time>2023-03-25T09:21:51Z</time>
      </trkpt>
      <trkpt lat="48.98044" lon="2.13873">
        <ele>10.15</ele>
        <time>2023-03-25T09:22:06Z</time>
      </trkpt>
      <trkpt lat="48.98044" lon="2.13869">
        <ele>10.62</ele>
        <time>2023-03-25T09:22:08Z</time>
      </trkpt>
      <trkpt lat="48.98043" lon="2.13867">
        <ele>10.86</ele>
        <time>2023-03-25T09:22:09Z</time>
      </trkpt>
      <trkpt lat="48.98043" lon="2.13864">
        <ele>10.21</ele>
        <time>2023-03-25T09:22:19Z</time>
      </trkpt>
      <trkpt lat="48.98044" lon="2.13862">
        <ele>10.75</ele>
        <time>2023-03-25T09:22:20Z</time>
      </trkpt>
      <trkpt lat="48.98045" lon="2.1386">
        <ele>10.53</ele>
        <time>2023-03-25T09:22:21Z</time>
      </trkpt>
      <trkpt lat="48.98046" lon="2.13859">
        <ele>10.84</ele>
        <time>2023-03-25T09:22:22Z</time>
      </trkpt>
      <trkpt lat="48.98046" lon="2.13861">
        <ele>10.84</ele>
        <time>2023-03-25T09:22:28Z</time>
      </trkpt>
      <trkpt lat="48.98045" lon="2.13858">
        <ele>10.43</ele>
        <time>2023-03-25T09:22:42Z</time>
      </trkpt>
      <trkpt lat="48.98049" lon="2.13837">
        <ele>9.83</ele>
        <time>2023-03-25T09:22:57Z</time>
      </trkpt>
      <trkpt lat="48.98052" lon="2.13827">
        <ele>10.88</ele>
        <time>2023-03-25T09:23:11Z</time>
      </trkpt>
      <trkpt lat="48.98051" lon="2.13815">
        <ele>11.26</ele>
        <time>2023-03-25T09:23:26Z</time>
      </trkpt>
      <trkpt lat="48.9805" lon="2.13808">
        <ele>11.23</ele>
        <time>2023-03-25T09:23:45Z</time>
      </trkpt>
      <trkpt lat="48.98047" lon="2.13798">
        <ele>10.94</ele>
        <time>2023-03-25T09:24:00Z</time>
      </trkpt>
      <trkpt lat="48.98047" lon="2.13796">
        <ele>11</ele>
        <time>2023-03-25T09:24:01Z</time>
      </trkpt>
      <trkpt lat="48.98046" lon="2.13788">
        <ele>11</ele>
        <time>2023-03-25T09:24:07Z</time>
      </trkpt>
      <trkpt lat="48.98049" lon="2.13775">
        <ele>11.44</ele>
        <time>2023-03-25T09:24:19Z</time>
      </trkpt>
      <trkpt lat="48.98054" lon="2.13769">
        <ele>11.88</ele>
        <time>2023-03-25T09:24:38Z</time>
      </trkpt>
      <trkpt lat="48.98055" lon="2.13767">
        <ele>11.51</ele>
        <time>2023-03-25T09:24:57Z</time>
      </trkpt>
      <trkpt lat="48.98054" lon="2.13767">
        <ele>11.23</ele>
        <time>2023-03-25T09:25:18Z</time>
      </trkpt>
      <trkpt lat="48.98055" lon="2.13756">
        <ele>11.17</ele>
        <time>2023-03-25T09:25:29Z</time>
      </trkpt>
      <trkpt lat="48.98056" lon="2.13746">
        <ele>12.31</ele>
        <time>2023-03-25T09:25:37Z</time>
      </trkpt>
      <trkpt lat="48.98059" lon="2.13737">
        <ele>11.78</ele>
        <time>2023-03-25T09:25:43Z</time>
      </trkpt>
      <trkpt lat="48.9806" lon="2.1372">
        <ele>11.46</ele>
        <time>2023-03-25T09:25:50Z</time>
      </trkpt>
      <trkpt lat="48.98051" lon="2.13702">
        <ele>12.42</ele>
        <time>2023-03-25T09:26:00Z</time>
      </trkpt>
      <trkpt lat="48.98051" lon="2.13687">
        <ele>12.33</ele>
        <time>2023-03-25T09:26:10Z</time>
      </trkpt>
      <trkpt lat="48.98052" lon="2.13686">
        <ele>12.29</ele>
        <time>2023-03-25T09:26:11Z</time>
      </trkpt>
      <trkpt lat="48.98052" lon="2.13681">
        <ele>11.91</ele>
        <time>2023-03-25T09:26:13Z</time>
      </trkpt>
      <trkpt lat="48.98053" lon="2.13674">
        <ele>12.07</ele>
        <time>2023-03-25T09:26:16Z</time>
      </trkpt>
      <trkpt lat="48.98051" lon="2.13666">
        <ele>12.15</ele>
        <time>2023-03-25T09:26:20Z</time>
      </trkpt>
      <trkpt lat="48.9805" lon="2.13659">
        <ele>12.96</ele>
        <time>2023-03-25T09:26:23Z</time>
      </trkpt>
      <trkpt lat="48.98049" lon="2.13643">
        <ele>12.54</ele>
        <time>2023-03-25T09:26:31Z</time>
      </trkpt>
      <trkpt lat="48.98049" lon="2.13637">
        <ele>12.26</ele>
        <time>2023-03-25T09:26:35Z</time>
      </trkpt>
      <trkpt lat="48.98048" lon="2.13612">
        <ele>12.54</ele>
        <time>2023-03-25T09:26:46Z</time>
      </trkpt>
      <trkpt lat="48.98052" lon="2.136">
        <ele>12.36</ele>
        <time>2023-03-25T09:26:51Z</time>
      </trkpt>
      <trkpt lat="48.98054" lon="2.13584">
        <ele>12.56</ele>
        <time>2023-03-25T09:26:59Z</time>
      </trkpt>
      <trkpt lat="48.98053" lon="2.1358">
        <ele>12.92</ele>
        <time>2023-03-25T09:27:01Z</time>
      </trkpt>
      <trkpt lat="48.98048" lon="2.13557">
        <ele>12.78</ele>
        <time>2023-03-25T09:27:12Z</time>
      </trkpt>
      <trkpt lat="48.98045" lon="2.13532">
        <ele>13.67</ele>
        <time>2023-03-25T09:27:25Z</time>
      </trkpt>
      <trkpt lat="48.98044" lon="2.13527">
        <ele>13.38</ele>
        <time>2023-03-25T09:27:28Z</time>
      </trkpt>
      <trkpt lat="48.98038" lon="2.13523">
        <ele>12.69</ele>
        <time>2023-03-25T09:27:32Z</time>
      </trkpt>
      <trkpt lat="48.98035" lon="2.13519">
        <ele>12.52</ele>
        <time>2023-03-25T09:27:35Z</time>
      </trkpt>
      <trkpt lat="48.98034" lon="2.13516">
        <ele>12.41</ele>
        <time>2023-03-25T09:27:37Z</time>
      </trkpt>
      <trkpt lat="48.98034" lon="2.13503">
        <ele>12.5</ele>
        <time>2023-03-25T09:27:43Z</time>
      </trkpt>
      <trkpt lat="48.98035" lon="2.13501">
        <ele>12.63</ele>
        <time>2023-03-25T09:27:45Z</time>
      </trkpt>
      <trkpt lat="48.98041" lon="2.13486">
        <ele>11.83</ele>
        <time>2023-03-25T09:28:03Z</time>
      </trkpt>
      <trkpt lat="48.98041" lon="2.13483">
        <ele>11.69</ele>
        <time>2023-03-25T09:28:05Z</time>
      </trkpt>
      <trkpt lat="48.98043" lon="2.1348">
        <ele>11.64</ele>
        <time>2023-03-25T09:28:07Z</time>
      </trkpt>
      <trkpt lat="48.98044" lon="2.13476">
        <ele>12.66</ele>
        <time>2023-03-25T09:28:10Z</time>
      </trkpt>
      <trkpt lat="48.98049" lon="2.13467">
        <ele>11.78</ele>
        <time>2023-03-25T09:28:16Z</time>
      </trkpt>
      <trkpt lat="48.9805" lon="2.13436">
        <ele>11.64</ele>
        <time>2023-03-25T09:28:32Z</time>
      </trkpt>
      <trkpt lat="48.98049" lon="2.13433">
        <ele>11.68</ele>
        <time>2023-03-25T09:28:34Z</time>
      </trkpt>
      <trkpt lat="48.98051" lon="2.13419">
        <ele>12.36</ele>
        <time>2023-03-25T09:28:42Z</time>
      </trkpt>
      <trkpt lat="48.98052" lon="2.13418">
        <ele>12.55</ele>
        <time>2023-03-25T09:28:43Z</time>
      </trkpt>
      <trkpt lat="48.98061" lon="2.13397">
        <ele>12.99</ele>
        <time>2023-03-25T09:28:55Z</time>
      </trkpt>
      <trkpt lat="48.98068" lon="2.13391">
        <ele>12.82</ele>
        <time>2023-03-25T09:29:00Z</time>
      </trkpt>
      <trkpt lat="48.98068" lon="2.13386">
        <ele>12.42</ele>
        <time>2023-03-25T09:29:03Z</time>
      </trkpt>
      <trkpt lat="48.98068" lon="2.1338">
        <ele>11.91</ele>
        <time>2023-03-25T09:29:05Z</time>
      </trkpt>
      <trkpt lat="48.98071" lon="2.13364">
        <ele>12.23</ele>
        <time>2023-03-25T09:29:15Z</time>
      </trkpt>
      <trkpt lat="48.98073" lon="2.13356">
        <ele>11.84</ele>
        <time>2023-03-25T09:29:19Z</time>
      </trkpt>
      <trkpt lat="48.98074" lon="2.13352">
        <ele>11.63</ele>
        <time>2023-03-25T09:29:21Z</time>
      </trkpt>
      <trkpt lat="48.98077" lon="2.13339">
        <ele>12.11</ele>
        <time>2023-03-25T09:29:27Z</time>
      </trkpt>
      <trkpt lat="48.98076" lon="2.13331">
        <ele>12.51</ele>
        <time>2023-03-25T09:29:31Z</time>
      </trkpt>
      <trkpt lat="48.98078" lon="2.1331">
        <ele>12.63</ele>
        <time>2023-03-25T09:29:41Z</time>
      </trkpt>
      <trkpt lat="48.98078" lon="2.13306">
        <ele>12.93</ele>
        <time>2023-03-25T09:29:43Z</time>
      </trkpt>
      <trkpt lat="48.98071" lon="2.13293">
        <ele>12.23</ele>
        <time>2023-03-25T09:29:52Z</time>
      </trkpt>
      <trkpt lat="48.98072" lon="2.13287">
        <ele>12.9</ele>
        <time>2023-03-25T09:29:55Z</time>
      </trkpt>
      <trkpt lat="48.98074" lon="2.13276">
        <ele>13.02</ele>
        <time>2023-03-25T09:30:01Z</time>
      </trkpt>
      <trkpt lat="48.98077" lon="2.13265">
        <ele>12.93</ele>
        <time>2023-03-25T09:30:07Z</time>
      </trkpt>
      <trkpt lat="48.98078" lon="2.13256">
        <ele>12.4</ele>
        <time>2023-03-25T09:30:11Z</time>
      </trkpt>
      <trkpt lat="48.98079" lon="2.13252">
        <ele>12.47</ele>
        <time>2023-03-25T09:30:13Z</time>
      </trkpt>
      <trkpt lat="48.98081" lon="2.13241">
        <ele>11.57</ele>
        <time>2023-03-25T09:30:19Z</time>
      </trkpt>
      <trkpt lat="48.98088" lon="2.1322">
        <ele>11.02</ele>
        <time>2023-03-25T09:30:29Z</time>
      </trkpt>
      <trkpt lat="48.98089" lon="2.13213">
        <ele>11.24</ele>
        <time>2023-03-25T09:30:32Z</time>
      </trkpt>
      <trkpt lat="48.98094" lon="2.13202">
        <ele>10.92</ele>
        <time>2023-03-25T09:30:38Z</time>
      </trkpt>
      <trkpt lat="48.98095" lon="2.13188">
        <ele>11.46</ele>
        <time>2023-03-25T09:30:46Z</time>
      </trkpt>
      <trkpt lat="48.98097" lon="2.1318">
        <ele>11.69</ele>
        <time>2023-03-25T09:30:50Z</time>
      </trkpt>
      <trkpt lat="48.98098" lon="2.13161">
        <ele>11.56</ele>
        <time>2023-03-25T09:31:02Z</time>
      </trkpt>
      <trkpt lat="48.98096" lon="2.13138">
        <ele>11.67</ele>
        <time>2023-03-25T09:31:15Z</time>
      </trkpt>
      <trkpt lat="48.98097" lon="2.13135">
        <ele>11.25</ele>
        <time>2023-03-25T09:31:16Z</time>
      </trkpt>
      <trkpt lat="48.98099" lon="2.13129">
        <ele>11.14</ele>
        <time>2023-03-25T09:31:19Z</time>
      </trkpt>
      <trkpt lat="48.98096" lon="2.1312">
        <ele>11.43</ele>
        <time>2023-03-25T09:31:23Z</time>
      </trkpt>
      <trkpt lat="48.98097" lon="2.13111">
        <ele>11.31</ele>
        <time>2023-03-25T09:31:28Z</time>
      </trkpt>
      <trkpt lat="48.98096" lon="2.13107">
        <ele>11.27</ele>
        <time>2023-03-25T09:31:30Z</time>
      </trkpt>
      <trkpt lat="48.98095" lon="2.1308">
        <ele>11.34</ele>
        <time>2023-03-25T09:31:43Z</time>
      </trkpt>
      <trkpt lat="48.98098" lon="2.13071">
        <ele>11.24</ele>
        <time>2023-03-25T09:31:48Z</time>
      </trkpt>
      <trkpt lat="48.98094" lon="2.1306">
        <ele>11.18</ele>
        <time>2023-03-25T09:31:53Z</time>
      </trkpt>
      <trkpt lat="48.98096" lon="2.13055">
        <ele>10.87</ele>
        <time>2023-03-25T09:31:55Z</time>
      </trkpt>
      <trkpt lat="48.981" lon="2.13037">
        <ele>11.42</ele>
        <time>2023-03-25T09:32:03Z</time>
      </trkpt>
      <trkpt lat="48.98104" lon="2.13014">
        <ele>10.67</ele>
        <time>2023-03-25T09:32:13Z</time>
      </trkpt>
      <trkpt lat="48.98108" lon="2.13011">
        <ele>12.04</ele>
        <time>2023-03-25T09:32:30Z</time>
      </trkpt>
      <trkpt lat="48.9811" lon="2.13008">
        <ele>11.38</ele>
        <time>2023-03-25T09:32:44Z</time>
      </trkpt>
      <trkpt lat="48.98111" lon="2.13008">
        <ele>10.87</ele>
        <time>2023-03-25T09:32:58Z</time>
      </trkpt>
      <trkpt lat="48.98111" lon="2.13012">
        <ele>11.59</ele>
        <time>2023-03-25T09:33:20Z</time>
      </trkpt>
      <trkpt lat="48.98112" lon="2.13011">
        <ele>11.11</ele>
        <time>2023-03-25T09:33:37Z</time>
      </trkpt>
      <trkpt lat="48.98113" lon="2.13011">
        <ele>10.77</ele>
        <time>2023-03-25T09:33:57Z</time>
      </trkpt>
      <trkpt lat="48.98114" lon="2.13011">
        <ele>11.62</ele>
        <time>2023-03-25T09:34:15Z</time>
      </trkpt>
      <trkpt lat="48.98114" lon="2.1301">
        <ele>11.91</ele>
        <time>2023-03-25T09:34:32Z</time>
      </trkpt>
      <trkpt lat="48.98114" lon="2.13009">
        <ele>11.22</ele>
        <time>2023-03-25T09:34:55Z</time>
      </trkpt>
      <trkpt lat="48.98114" lon="2.13009">
        <ele>11.98</ele>
        <time>2023-03-25T09:35:14Z</time>
      </trkpt>
      <trkpt lat="48.98114" lon="2.13008">
        <ele>10.92</ele>
        <time>2023-03-25T09:35:20Z</time>
      </trkpt>
      <trkpt lat="48.98117" lon="2.12996">
        <ele>11.97</ele>
        <time>2023-03-25T09:35:29Z</time>
      </trkpt>
      <trkpt lat="48.98115" lon="2.12989">
        <ele>11.32</ele>
        <time>2023-03-25T09:35:33Z</time>
      </trkpt>
      <trkpt lat="48.98112" lon="2.12987">
        <ele>11.91</ele>
        <time>2023-03-25T09:35:37Z</time>
      </trkpt>
      <trkpt lat="48.98105" lon="2.12982">
        <ele>11.67</ele>
        <time>2023-03-25T09:35:42Z</time>
      </trkpt>
      <trkpt lat="48.98102" lon="2.12977">
        <ele>11.1</ele>
        <time>2023-03-25T09:35:44Z</time>
      </trkpt>
      <trkpt lat="48.98099" lon="2.12967">
        <ele>11.86</ele>
        <time>2023-03-25T09:35:49Z</time>
      </trkpt>
      <trkpt lat="48.98096" lon="2.12961">
        <ele>10.2</ele>
        <time>2023-03-25T09:35:52Z</time>
      </trkpt>
      <trkpt lat="48.98091" lon="2.12957">
        <ele>10.22</ele>
        <time>2023-03-25T09:35:56Z</time>
      </trkpt>
      <trkpt lat="48.98089" lon="2.12952">
        <ele>11.17</ele>
        <time>2023-03-25T09:35:59Z</time>
      </trkpt>
      <trkpt lat="48.98079" lon="2.12932">
        <ele>11.33</ele>
        <time>2023-03-25T09:36:10Z</time>
      </trkpt>
      <trkpt lat="48.98068" lon="2.1292">
        <ele>10.49</ele>
        <time>2023-03-25T09:36:20Z</time>
      </trkpt>
      <trkpt lat="48.98062" lon="2.12914">
        <ele>10.94</ele>
        <time>2023-03-25T09:36:24Z</time>
      </trkpt>
      <trkpt lat="48.98058" lon="2.12902">
        <ele>11.13</ele>
        <time>2023-03-25T09:36:31Z</time>
      </trkpt>
      <trkpt lat="48.98049" lon="2.12886">
        <ele>11.2</ele>
        <time>2023-03-25T09:36:40Z</time>
      </trkpt>
      <trkpt lat="48.98041" lon="2.12879">
        <ele>10.56</ele>
        <time>2023-03-25T09:36:47Z</time>
      </trkpt>
      <trkpt lat="48.98037" lon="2.1287">
        <ele>10.48</ele>
        <time>2023-03-25T09:36:52Z</time>
      </trkpt>
      <trkpt lat="48.98036" lon="2.12846">
        <ele>11</ele>
        <time>2023-03-25T09:37:04Z</time>
      </trkpt>
      <trkpt lat="48.98035" lon="2.12845">
        <ele>10.67</ele>
        <time>2023-03-25T09:37:05Z</time>
      </trkpt>
      <trkpt lat="48.98028" lon="2.12827">
        <ele>10.88</ele>
        <time>2023-03-25T09:37:14Z</time>
      </trkpt>
      <trkpt lat="48.98029" lon="2.12803">
        <ele>10.96</ele>
        <time>2023-03-25T09:37:24Z</time>
      </trkpt>
      <trkpt lat="48.98027" lon="2.12798">
        <ele>11.23</ele>
        <time>2023-03-25T09:37:26Z</time>
      </trkpt>
      <trkpt lat="48.98028" lon="2.12784">
        <ele>10.63</ele>
        <time>2023-03-25T09:37:31Z</time>
      </trkpt>
      <trkpt lat="48.98026" lon="2.12779">
        <ele>10.77</ele>
        <time>2023-03-25T09:37:34Z</time>
      </trkpt>
      <trkpt lat="48.98026" lon="2.12766">
        <ele>10.16</ele>
        <time>2023-03-25T09:37:40Z</time>
      </trkpt>
      <trkpt lat="48.98026" lon="2.12754">
        <ele>10.25</ele>
        <time>2023-03-25T09:37:45Z</time>
      </trkpt>
      <trkpt lat="48.98024" lon="2.1274">
        <ele>10.41</ele>
        <time>2023-03-25T09:37:52Z</time>
      </trkpt>
      <trkpt lat="48.98026" lon="2.12721">
        <ele>10.26</ele>
        <time>2023-03-25T09:37:59Z</time>
      </trkpt>
      <trkpt lat="48.9803" lon="2.12702">
        <ele>9.83</ele>
        <time>2023-03-25T09:38:09Z</time>
      </trkpt>
      <trkpt lat="48.98028" lon="2.12681">
        <ele>10.02</ele>
        <time>2023-03-25T09:38:20Z</time>
      </trkpt>
      <trkpt lat="48.9802" lon="2.12659">
        <ele>9.01</ele>
        <time>2023-03-25T09:38:28Z</time>
      </trkpt>
      <trkpt lat="48.98016" lon="2.12635">
        <ele>9.71</ele>
        <time>2023-03-25T09:38:39Z</time>
      </trkpt>
      <trkpt lat="48.98016" lon="2.12631">
        <ele>9.4</ele>
        <time>2023-03-25T09:38:44Z</time>
      </trkpt>
      <trkpt lat="48.98011" lon="2.12619">
        <ele>9.35</ele>
        <time>2023-03-25T09:39:01Z</time>
      </trkpt>
      <trkpt lat="48.98011" lon="2.1261">
        <ele>9.54</ele>
        <time>2023-03-25T09:39:07Z</time>
      </trkpt>
      <trkpt lat="48.98012" lon="2.12595">
        <ele>9.92</ele>
        <time>2023-03-25T09:39:16Z</time>
      </trkpt>
      <trkpt lat="48.98002" lon="2.12579">
        <ele>9.95</ele>
        <time>2023-03-25T09:39:26Z</time>
      </trkpt>
      <trkpt lat="48.97998" lon="2.12577">
        <ele>10.49</ele>
        <time>2023-03-25T09:39:28Z</time>
      </trkpt>
      <trkpt lat="48.9799" lon="2.12565">
        <ele>9.41</ele>
        <time>2023-03-25T09:39:36Z</time>
      </trkpt>
      <trkpt lat="48.97989" lon="2.12547">
        <ele>10.33</ele>
        <time>2023-03-25T09:39:44Z</time>
      </trkpt>
      <trkpt lat="48.97987" lon="2.12536">
        <ele>9.55</ele>
        <time>2023-03-25T09:39:49Z</time>
      </trkpt>
      <trkpt lat="48.97986" lon="2.12514">
        <ele>9.73</ele>
        <time>2023-03-25T09:39:59Z</time>
      </trkpt>
      <trkpt lat="48.97985" lon="2.12506">
        <ele>9.33</ele>
        <time>2023-03-25T09:40:04Z</time>
      </trkpt>
      <trkpt lat="48.97985" lon="2.1248">
        <ele>9.19</ele>
        <time>2023-03-25T09:40:15Z</time>
      </trkpt>
      <trkpt lat="48.97978" lon="2.12459">
        <ele>9.62</ele>
        <time>2023-03-25T09:40:23Z</time>
      </trkpt>
      <trkpt lat="48.97975" lon="2.12432">
        <ele>9.59</ele>
        <time>2023-03-25T09:40:34Z</time>
      </trkpt>
      <trkpt lat="48.9798" lon="2.12413">
        <ele>7.9</ele>
        <time>2023-03-25T09:40:44Z</time>
      </trkpt>
      <trkpt lat="48.97979" lon="2.12405">
        <ele>9.08</ele>
        <time>2023-03-25T09:40:49Z</time>
      </trkpt>
      <trkpt lat="48.97978" lon="2.12385">
        <ele>7.89</ele>
        <time>2023-03-25T09:40:59Z</time>
      </trkpt>
      <trkpt lat="48.97979" lon="2.12373">
        <ele>8.17</ele>
        <time>2023-03-25T09:41:05Z</time>
      </trkpt>
      <trkpt lat="48.97983" lon="2.12343">
        <ele>8.51</ele>
        <time>2023-03-25T09:41:15Z</time>
      </trkpt>
      <trkpt lat="48.97983" lon="2.12329">
        <ele>8.89</ele>
        <time>2023-03-25T09:41:20Z</time>
      </trkpt>
      <trkpt lat="48.97979" lon="2.12321">
        <ele>8.29</ele>
        <time>2023-03-25T09:41:24Z</time>
      </trkpt>
      <trkpt lat="48.97973" lon="2.123">
        <ele>7.54</ele>
        <time>2023-03-25T09:41:37Z</time>
      </trkpt>
      <trkpt lat="48.97972" lon="2.12299">
        <ele>7.95</ele>
        <time>2023-03-25T09:41:38Z</time>
      </trkpt>
      <trkpt lat="48.97961" lon="2.12273">
        <ele>7.78</ele>
        <time>2023-03-25T09:41:49Z</time>
      </trkpt>
      <trkpt lat="48.97959" lon="2.1227">
        <ele>7.65</ele>
        <time>2023-03-25T09:41:50Z</time>
      </trkpt>
      <trkpt lat="48.97957" lon="2.12251">
        <ele>8.12</ele>
        <time>2023-03-25T09:42:01Z</time>
      </trkpt>
      <trkpt lat="48.97957" lon="2.1223">
        <ele>7.15</ele>
        <time>2023-03-25T09:42:10Z</time>
      </trkpt>
      <trkpt lat="48.97955" lon="2.12214">
        <ele>8.01</ele>
        <time>2023-03-25T09:42:17Z</time>
      </trkpt>
      <trkpt lat="48.97955" lon="2.12208">
        <ele>6.89</ele>
        <time>2023-03-25T09:42:20Z</time>
      </trkpt>
      <trkpt lat="48.97953" lon="2.12197">
        <ele>6.82</ele>
        <time>2023-03-25T09:42:25Z</time>
      </trkpt>
      <trkpt lat="48.97955" lon="2.1217">
        <ele>6.98</ele>
        <time>2023-03-25T09:42:35Z</time>
      </trkpt>
      <trkpt lat="48.9796" lon="2.12145">
        <ele>7.12</ele>
        <time>2023-03-25T09:42:44Z</time>
      </trkpt>
      <trkpt lat="48.97959" lon="2.12143">
        <ele>7.15</ele>
        <time>2023-03-25T09:42:45Z</time>
      </trkpt>
      <trkpt lat="48.97955" lon="2.1212">
        <ele>7.6</ele>
        <time>2023-03-25T09:42:56Z</time>
      </trkpt>
      <trkpt lat="48.97955" lon="2.12119">
        <ele>6.82</ele>
        <time>2023-03-25T09:42:57Z</time>
      </trkpt>
      <trkpt lat="48.97939" lon="2.12109">
        <ele>6.95</ele>
        <time>2023-03-25T09:43:07Z</time>
      </trkpt>
      <trkpt lat="48.97936" lon="2.12106">
        <ele>6.72</ele>
        <time>2023-03-25T09:43:09Z</time>
      </trkpt>
      <trkpt lat="48.97933" lon="2.12091">
        <ele>6.22</ele>
        <time>2023-03-25T09:43:18Z</time>
      </trkpt>
      <trkpt lat="48.97927" lon="2.12082">
        <ele>6.81</ele>
        <time>2023-03-25T09:43:24Z</time>
      </trkpt>
      <trkpt lat="48.97913" lon="2.12062">
        <ele>6.51</ele>
        <time>2023-03-25T09:43:35Z</time>
      </trkpt>
      <trkpt lat="48.9791" lon="2.12054">
        <ele>6.42</ele>
        <time>2023-03-25T09:43:39Z</time>
      </trkpt>
      <trkpt lat="48.9791" lon="2.12036">
        <ele>6.15</ele>
        <time>2023-03-25T09:43:47Z</time>
      </trkpt>
      <trkpt lat="48.97905" lon="2.12024">
        <ele>5.88</ele>
        <time>2023-03-25T09:43:57Z</time>
      </trkpt>
      <trkpt lat="48.979" lon="2.12021">
        <ele>5.63</ele>
        <time>2023-03-25T09:44:07Z</time>
      </trkpt>
      <trkpt lat="48.97895" lon="2.12015">
        <ele>5.88</ele>
        <time>2023-03-25T09:44:11Z</time>
      </trkpt>
      <trkpt lat="48.97892" lon="2.12004">
        <ele>5.99</ele>
        <time>2023-03-25T09:44:17Z</time>
      </trkpt>
      <trkpt lat="48.97886" lon="2.11989">
        <ele>5.25</ele>
        <time>2023-03-25T09:44:26Z</time>
      </trkpt>
      <trkpt lat="48.97878" lon="2.11975">
        <ele>4.8</ele>
        <time>2023-03-25T09:44:33Z</time>
      </trkpt>
      <trkpt lat="48.97876" lon="2.11972">
        <ele>5.48</ele>
        <time>2023-03-25T09:44:35Z</time>
      </trkpt>
      <trkpt lat="48.97863" lon="2.11961">
        <ele>5.03</ele>
        <time>2023-03-25T09:44:44Z</time>
      </trkpt>
      <trkpt lat="48.97848" lon="2.11952">
        <ele>4.3</ele>
        <time>2023-03-25T09:44:56Z</time>
      </trkpt>
      <trkpt lat="48.97839" lon="2.11949">
        <ele>4.16</ele>
        <time>2023-03-25T09:45:02Z</time>
      </trkpt>
      <trkpt lat="48.97833" lon="2.11948">
        <ele>5.18</ele>
        <time>2023-03-25T09:45:06Z</time>
      </trkpt>
      <trkpt lat="48.97818" lon="2.11944">
        <ele>4.37</ele>
        <time>2023-03-25T09:45:14Z</time>
      </trkpt>
      <trkpt lat="48.97812" lon="2.11941">
        <ele>4.62</ele>
        <time>2023-03-25T09:45:18Z</time>
      </trkpt>
      <trkpt lat="48.97807" lon="2.11939">
        <ele>4.81</ele>
        <time>2023-03-25T09:45:22Z</time>
      </trkpt>
      <trkpt lat="48.97799" lon="2.11938">
        <ele>4.89</ele>
        <time>2023-03-25T09:45:27Z</time>
      </trkpt>
      <trkpt lat="48.97794" lon="2.11936">
        <ele>4.45</ele>
        <time>2023-03-25T09:45:31Z</time>
      </trkpt>
      <trkpt lat="48.97787" lon="2.11935">
        <ele>4.13</ele>
        <time>2023-03-25T09:45:36Z</time>
      </trkpt>
      <trkpt lat="48.97776" lon="2.11933">
        <ele>2.12</ele>
        <time>2023-03-25T09:45:43Z</time>
      </trkpt>
      <trkpt lat="48.97774" lon="2.11928">
        <ele>4</ele>
        <time>2023-03-25T09:45:47Z</time>
      </trkpt>
      <trkpt lat="48.97774" lon="2.11925">
        <ele>3.91</ele>
        <time>2023-03-25T09:45:49Z</time>
      </trkpt>
      <trkpt lat="48.97774" lon="2.11922">
        <ele>4.39</ele>
        <time>2023-03-25T09:45:51Z</time>
      </trkpt>
      <trkpt lat="48.9778" lon="2.11906">
        <ele>4.8</ele>
        <time>2023-03-25T09:45:59Z</time>
      </trkpt>
      <trkpt lat="48.97781" lon="2.119">
        <ele>4.22</ele>
        <time>2023-03-25T09:46:02Z</time>
      </trkpt>
      <trkpt lat="48.97784" lon="2.1189">
        <ele>4.26</ele>
        <time>2023-03-25T09:46:07Z</time>
      </trkpt>
      <trkpt lat="48.97784" lon="2.11884">
        <ele>4.17</ele>
        <time>2023-03-25T09:46:10Z</time>
      </trkpt>
      <trkpt lat="48.97789" lon="2.11862">
        <ele>3.78</ele>
        <time>2023-03-25T09:46:21Z</time>
      </trkpt>
      <trkpt lat="48.97784" lon="2.11849">
        <ele>3.16</ele>
        <time>2023-03-25T09:46:28Z</time>
      </trkpt>
      <trkpt lat="48.97782" lon="2.11845">
        <ele>3.49</ele>
        <time>2023-03-25T09:46:30Z</time>
      </trkpt>
      <trkpt lat="48.97779" lon="2.1182">
        <ele>3.04</ele>
        <time>2023-03-25T09:46:41Z</time>
      </trkpt>
      <trkpt lat="48.97779" lon="2.11817">
        <ele>3.16</ele>
        <time>2023-03-25T09:46:42Z</time>
      </trkpt>
      <trkpt lat="48.9778" lon="2.11806">
        <ele>2.53</ele>
        <time>2023-03-25T09:46:47Z</time>
      </trkpt>
      <trkpt lat="48.97778" lon="2.11783">
        <ele>3.72</ele>
        <time>2023-03-25T09:46:56Z</time>
      </trkpt>
      <trkpt lat="48.97773" lon="2.11772">
        <ele>2.84</ele>
        <time>2023-03-25T09:47:01Z</time>
      </trkpt>
      <trkpt lat="48.97767" lon="2.11765">
        <ele>2.54</ele>
        <time>2023-03-25T09:47:08Z</time>
      </trkpt>
      <trkpt lat="48.97763" lon="2.11758">
        <ele>2.17</ele>
        <time>2023-03-25T09:47:14Z</time>
      </trkpt>
      <trkpt lat="48.97757" lon="2.11736">
        <ele>1.8</ele>
        <time>2023-03-25T09:47:27Z</time>
      </trkpt>
      <trkpt lat="48.97749" lon="2.11715">
        <ele>1.29</ele>
        <time>2023-03-25T09:47:39Z</time>
      </trkpt>
      <trkpt lat="48.97742" lon="2.11707">
        <ele>0.88</ele>
        <time>2023-03-25T09:47:44Z</time>
      </trkpt>
      <trkpt lat="48.97734" lon="2.11703">
        <ele>1.61</ele>
        <time>2023-03-25T09:47:50Z</time>
      </trkpt>
      <trkpt lat="48.97724" lon="2.11689">
        <ele>1.64</ele>
        <time>2023-03-25T09:48:00Z</time>
      </trkpt>
      <trkpt lat="48.9772" lon="2.11685">
        <ele>0.75</ele>
        <time>2023-03-25T09:48:04Z</time>
      </trkpt>
      <trkpt lat="48.97705" lon="2.11661">
        <ele>1.01</ele>
        <time>2023-03-25T09:48:19Z</time>
      </trkpt>
      <trkpt lat="48.97696" lon="2.11657">
        <ele>1.37</ele>
        <time>2023-03-25T09:48:24Z</time>
      </trkpt>
      <trkpt lat="48.97678" lon="2.11646">
        <ele>0.93</ele>
        <time>2023-03-25T09:48:35Z</time>
      </trkpt>
      <trkpt lat="48.97668" lon="2.11639">
        <ele>-0.66</ele>
        <time>2023-03-25T09:48:43Z</time>
      </trkpt>
      <trkpt lat="48.97652" lon="2.11627">
        <ele>-0.74</ele>
        <time>2023-03-25T09:48:53Z</time>
      </trkpt>
      <trkpt lat="48.97648" lon="2.11625">
        <ele>-0.52</ele>
        <time>2023-03-25T09:48:56Z</time>
      </trkpt>
      <trkpt lat="48.97635" lon="2.11629">
        <ele>-0.34</ele>
        <time>2023-03-25T09:49:04Z</time>
      </trkpt>
      <trkpt lat="48.97625" lon="2.11626">
        <ele>-0.23</ele>
        <time>2023-03-25T09:49:09Z</time>
      </trkpt>
      <trkpt lat="48.97621" lon="2.11624">
        <ele>0.21</ele>
        <time>2023-03-25T09:49:11Z</time>
      </trkpt>
      <trkpt lat="48.97619" lon="2.11607">
        <ele>0.45</ele>
        <time>2023-03-25T09:49:20Z</time>
      </trkpt>
      <trkpt lat="48.97619" lon="2.11597">
        <ele>-0.54</ele>
        <time>2023-03-25T09:49:32Z</time>
      </trkpt>
      <trkpt lat="48.97621" lon="2.11587">
        <ele>-1.07</ele>
        <time>2023-03-25T09:49:43Z</time>
      </trkpt>
      <trkpt lat="48.97621" lon="2.11582">
        <ele>-1.05</ele>
        <time>2023-03-25T09:49:45Z</time>
      </trkpt>
      <trkpt lat="48.97622" lon="2.11562">
        <ele>-1.04</ele>
        <time>2023-03-25T09:49:57Z</time>
      </trkpt>
      <trkpt lat="48.97622" lon="2.11539">
        <ele>-2.32</ele>
        <time>2023-03-25T09:50:08Z</time>
      </trkpt>
      <trkpt lat="48.97623" lon="2.11535">
        <ele>-2.45</ele>
        <time>2023-03-25T09:50:10Z</time>
      </trkpt>
      <trkpt lat="48.97622" lon="2.1152">
        <ele>-2.08</ele>
        <time>2023-03-25T09:50:17Z</time>
      </trkpt>
      <trkpt lat="48.97623" lon="2.11514">
        <ele>-2.64</ele>
        <time>2023-03-25T09:50:19Z</time>
      </trkpt>
      <trkpt lat="48.97624" lon="2.11506">
        <ele>-2.86</ele>
        <time>2023-03-25T09:50:23Z</time>
      </trkpt>
      <trkpt lat="48.97626" lon="2.11483">
        <ele>-2.33</ele>
        <time>2023-03-25T09:50:33Z</time>
      </trkpt>
      <trkpt lat="48.97627" lon="2.11471">
        <ele>-2.91</ele>
        <time>2023-03-25T09:50:39Z</time>
      </trkpt>
      <trkpt lat="48.97627" lon="2.11464">
        <ele>-2.95</ele>
        <time>2023-03-25T09:50:42Z</time>
      </trkpt>
      <trkpt lat="48.97627" lon="2.11454">
        <ele>-2.79</ele>
        <time>2023-03-25T09:50:46Z</time>
      </trkpt>
      <trkpt lat="48.9763" lon="2.11433">
        <ele>-3.43</ele>
        <time>2023-03-25T09:50:55Z</time>
      </trkpt>
      <trkpt lat="48.9763" lon="2.11428">
        <ele>-3.61</ele>
        <time>2023-03-25T09:50:58Z</time>
      </trkpt>
      <trkpt lat="48.97634" lon="2.11406">
        <ele>-4.36</ele>
        <time>2023-03-25T09:51:08Z</time>
      </trkpt>
      <trkpt lat="48.97632" lon="2.11387">
        <ele>-4.61</ele>
        <time>2023-03-25T09:51:20Z</time>
      </trkpt>
      <trkpt lat="48.97632" lon="2.11375">
        <ele>-4.46</ele>
        <time>2023-03-25T09:51:26Z</time>
      </trkpt>
      <trkpt lat="48.97634" lon="2.11356">
        <ele>-5.12</ele>
        <time>2023-03-25T09:51:38Z</time>
      </trkpt>
      <trkpt lat="48.97636" lon="2.11331">
        <ele>-6.01</ele>
        <time>2023-03-25T09:51:51Z</time>
      </trkpt>
      <trkpt lat="48.97635" lon="2.11328">
        <ele>-6.43</ele>
        <time>2023-03-25T09:51:53Z</time>
      </trkpt>
      <trkpt lat="48.97638" lon="2.113">
        <ele>-6.83</ele>
        <time>2023-03-25T09:52:07Z</time>
      </trkpt>
      <trkpt lat="48.97644" lon="2.11265">
        <ele>-7.45</ele>
        <time>2023-03-25T09:52:23Z</time>
      </trkpt>
      <trkpt lat="48.97643" lon="2.11239">
        <ele>-7.29</ele>
        <time>2023-03-25T09:52:34Z</time>
      </trkpt>
      <trkpt lat="48.97641" lon="2.11216">
        <ele>-7.24</ele>
        <time>2023-03-25T09:52:44Z</time>
      </trkpt>
      <trkpt lat="48.97643" lon="2.11189">
        <ele>-8.06</ele>
        <time>2023-03-25T09:52:55Z</time>
      </trkpt>
      <trkpt lat="48.97644" lon="2.11177">
        <ele>-7.89</ele>
        <time>2023-03-25T09:53:00Z</time>
      </trkpt>
      <trkpt lat="48.97644" lon="2.1116">
        <ele>-9.1</ele>
        <time>2023-03-25T09:53:08Z</time>
      </trkpt>
      <trkpt lat="48.97646" lon="2.11135">
        <ele>-9.82</ele>
        <time>2023-03-25T09:53:18Z</time>
      </trkpt>
      <trkpt lat="48.97646" lon="2.11126">
        <ele>-10.18</ele>
        <time>2023-03-25T09:53:22Z</time>
      </trkpt>
      <trkpt lat="48.97646" lon="2.11116">
        <ele>-11.46</ele>
        <time>2023-03-25T09:53:27Z</time>
      </trkpt>
      <trkpt lat="48.97648" lon="2.11105">
        <ele>-11.56</ele>
        <time>2023-03-25T09:53:32Z</time>
      </trkpt>
      <trkpt lat="48.9765" lon="2.11086">
        <ele>-11.92</ele>
        <time>2023-03-25T09:53:41Z</time>
      </trkpt>
      <trkpt lat="48.97651" lon="2.11066">
        <ele>-12.43</ele>
        <time>2023-03-25T09:53:48Z</time>
      </trkpt>
      <trkpt lat="48.97653" lon="2.11042">
        <ele>-12.32</ele>
        <time>2023-03-25T09:53:57Z</time>
      </trkpt>
      <trkpt lat="48.97651" lon="2.11022">
        <ele>-13.21</ele>
        <time>2023-03-25T09:54:06Z</time>
      </trkpt>
      <trkpt lat="48.97651" lon="2.11">
        <ele>-13.37</ele>
        <time>2023-03-25T09:54:16Z</time>
      </trkpt>
      <trkpt lat="48.97653" lon="2.10976">
        <ele>-13.49</ele>
        <time>2023-03-25T09:54:27Z</time>
      </trkpt>
      <trkpt lat="48.97651" lon="2.10965">
        <ele>-12.9</ele>
        <time>2023-03-25T09:54:32Z</time>
      </trkpt>
      <trkpt lat="48.97651" lon="2.10955">
        <ele>-13.6</ele>
        <time>2023-03-25T09:54:37Z</time>
      </trkpt>
      <trkpt lat="48.9765" lon="2.10942">
        <ele>-15.1</ele>
        <time>2023-03-25T09:54:43Z</time>
      </trkpt>
      <trkpt lat="48.97647" lon="2.10935">
        <ele>-14.17</ele>
        <time>2023-03-25T09:54:47Z</time>
      </trkpt>
      <trkpt lat="48.97647" lon="2.1092">
        <ele>-13.56</ele>
        <time>2023-03-25T09:54:53Z</time>
      </trkpt>
      <trkpt lat="48.97644" lon="2.10901">
        <ele>-15.33</ele>
        <time>2023-03-25T09:55:07Z</time>
      </trkpt>
      <trkpt lat="48.97643" lon="2.10881">
        <ele>-13.42</ele>
        <time>2023-03-25T09:55:18Z</time>
      </trkpt>
      <trkpt lat="48.97641" lon="2.10866">
        <ele>-14.48</ele>
        <time>2023-03-25T09:55:27Z</time>
      </trkpt>
      <trkpt lat="48.97643" lon="2.10853">
        <ele>-14.39</ele>
        <time>2023-03-25T09:55:34Z</time>
      </trkpt>
      <trkpt lat="48.97642" lon="2.10839">
        <ele>-14.14</ele>
        <time>2023-03-25T09:55:44Z</time>
      </trkpt>
      <trkpt lat="48.97639" lon="2.10835">
        <ele>-14.99</ele>
        <time>2023-03-25T09:56:01Z</time>
      </trkpt>
      <trkpt lat="48.97632" lon="2.10831">
        <ele>-14.7</ele>
        <time>2023-03-25T09:56:19Z</time>
      </trkpt>
      <trkpt lat="48.97625" lon="2.10829">
        <ele>-14.46</ele>
        <time>2023-03-25T09:56:41Z</time>
      </trkpt>
      <trkpt lat="48.97623" lon="2.10828">
        <ele>-14.69</ele>
        <time>2023-03-25T09:56:43Z</time>
      </trkpt>
      <trkpt lat="48.97608" lon="2.10824">
        <ele>-15.12</ele>
        <time>2023-03-25T09:56:55Z</time>
      </trkpt>
      <trkpt lat="48.97592" lon="2.10826">
        <ele>-14.45</ele>
        <time>2023-03-25T09:57:05Z</time>
      </trkpt>
      <trkpt lat="48.97571" lon="2.10823">
        <ele>-14.97</ele>
        <time>2023-03-25T09:57:18Z</time>
      </trkpt>
      <trkpt lat="48.97556" lon="2.10815">
        <ele>-16.33</ele>
        <time>2023-03-25T09:57:28Z</time>
      </trkpt>
      <trkpt lat="48.97538" lon="2.10813">
        <ele>-15.21</ele>
        <time>2023-03-25T09:57:40Z</time>
      </trkpt>
      <trkpt lat="48.97521" lon="2.10808">
        <ele>-13.95</ele>
        <time>2023-03-25T09:57:52Z</time>
      </trkpt>
      <trkpt lat="48.97509" lon="2.10805">
        <ele>-14.58</ele>
        <time>2023-03-25T09:58:02Z</time>
      </trkpt>
      <trkpt lat="48.97495" lon="2.10803">
        <ele>-13.55</ele>
        <time>2023-03-25T09:58:12Z</time>
      </trkpt>
      <trkpt lat="48.97479" lon="2.10801">
        <ele>-13.87</ele>
        <time>2023-03-25T09:58:23Z</time>
      </trkpt>
      <trkpt lat="48.97468" lon="2.10798">
        <ele>-13.65</ele>
        <time>2023-03-25T09:58:30Z</time>
      </trkpt>
      <trkpt lat="48.97462" lon="2.10794">
        <ele>-14.06</ele>
        <time>2023-03-25T09:58:34Z</time>
      </trkpt>
      <trkpt lat="48.97443" lon="2.10786">
        <ele>-13.6</ele>
        <time>2023-03-25T09:58:48Z</time>
      </trkpt>
      <trkpt lat="48.97439" lon="2.10782">
        <ele>-13.57</ele>
        <time>2023-03-25T09:59:00Z</time>
      </trkpt>
      <trkpt lat="48.97437" lon="2.10792">
        <ele>-13.52</ele>
        <time>2023-03-25T09:59:11Z</time>
      </trkpt>
      <trkpt lat="48.97434" lon="2.10801">
        <ele>-13.33</ele>
        <time>2023-03-25T09:59:16Z</time>
      </trkpt>
      <trkpt lat="48.9743" lon="2.10813">
        <ele>-13.07</ele>
        <time>2023-03-25T09:59:23Z</time>
      </trkpt>
      <trkpt lat="48.97429" lon="2.10825">
        <ele>-13.04</ele>
        <time>2023-03-25T09:59:28Z</time>
      </trkpt>
      <trkpt lat="48.97428" lon="2.10832">
        <ele>-13.1</ele>
        <time>2023-03-25T09:59:31Z</time>
      </trkpt>
      <trkpt lat="48.97426" lon="2.10846">
        <ele>-13.08</ele>
        <time>2023-03-25T09:59:37Z</time>
      </trkpt>
      <trkpt lat="48.97424" lon="2.10855">
        <ele>-13.46</ele>
        <time>2023-03-25T09:59:41Z</time>
      </trkpt>
      <trkpt lat="48.97417" lon="2.10887">
        <ele>-12.24</ele>
        <time>2023-03-25T09:59:55Z</time>
      </trkpt>
      <trkpt lat="48.97414" lon="2.10896">
        <ele>-12.65</ele>
        <time>2023-03-25T09:59:59Z</time>
      </trkpt>
      <trkpt lat="48.97408" lon="2.10926">
        <ele>-13.21</ele>
        <time>2023-03-25T10:00:12Z</time>
      </trkpt>
      <trkpt lat="48.97404" lon="2.10947">
        <ele>-12.1</ele>
        <time>2023-03-25T10:00:21Z</time>
      </trkpt>
      <trkpt lat="48.97404" lon="2.10948">
        <ele>-12.67</ele>
        <time>2023-03-25T10:00:22Z</time>
      </trkpt>
      <trkpt lat="48.97398" lon="2.1097">
        <ele>-12.43</ele>
        <time>2023-03-25T10:00:33Z</time>
      </trkpt>
      <trkpt lat="48.97396" lon="2.10979">
        <ele>-12.04</ele>
        <time>2023-03-25T10:00:37Z</time>
      </trkpt>
      <trkpt lat="48.97393" lon="2.1101">
        <ele>-11.81</ele>
        <time>2023-03-25T10:00:48Z</time>
      </trkpt>
      <trkpt lat="48.97393" lon="2.11019">
        <ele>-11.81</ele>
        <time>2023-03-25T10:00:52Z</time>
      </trkpt>
      <trkpt lat="48.97392" lon="2.11039">
        <ele>-11.42</ele>
        <time>2023-03-25T10:01:02Z</time>
      </trkpt>
      <trkpt lat="48.97385" lon="2.11059">
        <ele>-11.75</ele>
        <time>2023-03-25T10:01:10Z</time>
      </trkpt>
      <trkpt lat="48.97383" lon="2.11069">
        <ele>-11.67</ele>
        <time>2023-03-25T10:01:14Z</time>
      </trkpt>
      <trkpt lat="48.97381" lon="2.11086">
        <ele>-11.81</ele>
        <time>2023-03-25T10:01:21Z</time>
      </trkpt>
      <trkpt lat="48.97379" lon="2.11099">
        <ele>-11.84</ele>
        <time>2023-03-25T10:01:25Z</time>
      </trkpt>
      <trkpt lat="48.97375" lon="2.11115">
        <ele>-12.01</ele>
        <time>2023-03-25T10:01:31Z</time>
      </trkpt>
      <trkpt lat="48.97373" lon="2.11119">
        <ele>-11.03</ele>
        <time>2023-03-25T10:01:33Z</time>
      </trkpt>
      <trkpt lat="48.97373" lon="2.11124">
        <ele>-11.56</ele>
        <time>2023-03-25T10:01:35Z</time>
      </trkpt>
      <trkpt lat="48.97368" lon="2.11147">
        <ele>-11.31</ele>
        <time>2023-03-25T10:01:44Z</time>
      </trkpt>
      <trkpt lat="48.97368" lon="2.11149">
        <ele>-11.34</ele>
        <time>2023-03-25T10:01:45Z</time>
      </trkpt>
      <trkpt lat="48.97365" lon="2.11159">
        <ele>-11.62</ele>
        <time>2023-03-25T10:01:49Z</time>
      </trkpt>
      <trkpt lat="48.97362" lon="2.11165">
        <ele>-11.07</ele>
        <time>2023-03-25T10:01:51Z</time>
      </trkpt>
      <trkpt lat="48.9736" lon="2.11178">
        <ele>-11.5</ele>
        <time>2023-03-25T10:01:56Z</time>
      </trkpt>
      <trkpt lat="48.97357" lon="2.11205">
        <ele>-11.65</ele>
        <time>2023-03-25T10:02:05Z</time>
      </trkpt>
      <trkpt lat="48.97349" lon="2.11234">
        <ele>-11.47</ele>
        <time>2023-03-25T10:02:14Z</time>
      </trkpt>
      <trkpt lat="48.97347" lon="2.11242">
        <ele>-11.53</ele>
        <time>2023-03-25T10:02:17Z</time>
      </trkpt>
      <trkpt lat="48.97344" lon="2.1126">
        <ele>-11.55</ele>
        <time>2023-03-25T10:02:27Z</time>
      </trkpt>
      <trkpt lat="48.97338" lon="2.11279">
        <ele>-11.46</ele>
        <time>2023-03-25T10:02:36Z</time>
      </trkpt>
      <trkpt lat="48.97332" lon="2.11304">
        <ele>-11.22</ele>
        <time>2023-03-25T10:02:44Z</time>
      </trkpt>
      <trkpt lat="48.97327" lon="2.11322">
        <ele>-11.01</ele>
        <time>2023-03-25T10:02:52Z</time>
      </trkpt>
      <trkpt lat="48.97326" lon="2.11324">
        <ele>-11.07</ele>
        <time>2023-03-25T10:02:53Z</time>
      </trkpt>
      <trkpt lat="48.97326" lon="2.11326">
        <ele>-11.11</ele>
        <time>2023-03-25T10:02:54Z</time>
      </trkpt>
      <trkpt lat="48.97325" lon="2.11328">
        <ele>-10.79</ele>
        <time>2023-03-25T10:02:55Z</time>
      </trkpt>
      <trkpt lat="48.97324" lon="2.1133">
        <ele>-10.61</ele>
        <time>2023-03-25T10:02:56Z</time>
      </trkpt>
      <trkpt lat="48.97323" lon="2.11332">
        <ele>-10.75</ele>
        <time>2023-03-25T10:02:57Z</time>
      </trkpt>
      <trkpt lat="48.97323" lon="2.11334">
        <ele>-10.62</ele>
        <time>2023-03-25T10:02:58Z</time>
      </trkpt>
      <trkpt lat="48.97324" lon="2.11336">
        <ele>-10.86</ele>
        <time>2023-03-25T10:02:59Z</time>
      </trkpt>
      <trkpt lat="48.97324" lon="2.11339">
        <ele>-10.56</ele>
        <time>2023-03-25T10:03:00Z</time>
      </trkpt>
      <trkpt lat="48.97323" lon="2.11341">
        <ele>-11.11</ele>
        <time>2023-03-25T10:03:01Z</time>
      </trkpt>
      <trkpt lat="48.97323" lon="2.11343">
        <ele>-10.99</ele>
        <time>2023-03-25T10:03:02Z</time>
      </trkpt>
      <trkpt lat="48.97323" lon="2.11346">
        <ele>-10.47</ele>
        <time>2023-03-25T10:03:03Z</time>
      </trkpt>
      <trkpt lat="48.97317" lon="2.11367">
        <ele>-10.3</ele>
        <time>2023-03-25T10:03:12Z</time>
      </trkpt>
      <trkpt lat="48.97314" lon="2.11386">
        <ele>-10.29</ele>
        <time>2023-03-25T10:03:21Z</time>
      </trkpt>
      <trkpt lat="48.9731" lon="2.11411">
        <ele>-10.39</ele>
        <time>2023-03-25T10:03:34Z</time>
      </trkpt>
      <trkpt lat="48.97309" lon="2.11415">
        <ele>-9.7</ele>
        <time>2023-03-25T10:03:36Z</time>
      </trkpt>
      <trkpt lat="48.97308" lon="2.11418">
        <ele>-10.1</ele>
        <time>2023-03-25T10:03:37Z</time>
      </trkpt>
      <trkpt lat="48.97307" lon="2.11421">
        <ele>-10.11</ele>
        <time>2023-03-25T10:03:38Z</time>
      </trkpt>
      <trkpt lat="48.97307" lon="2.11423">
        <ele>-9.9</ele>
        <time>2023-03-25T10:03:39Z</time>
      </trkpt>
      <trkpt lat="48.97306" lon="2.11426">
        <ele>-10.26</ele>
        <time>2023-03-25T10:03:40Z</time>
      </trkpt>
      <trkpt lat="48.97305" lon="2.11428">
        <ele>-10.27</ele>
        <time>2023-03-25T10:03:41Z</time>
      </trkpt>
      <trkpt lat="48.97305" lon="2.1143">
        <ele>-9.98</ele>
        <time>2023-03-25T10:03:42Z</time>
      </trkpt>
      <trkpt lat="48.97305" lon="2.11434">
        <ele>-10.08</ele>
        <time>2023-03-25T10:03:44Z</time>
      </trkpt>
      <trkpt lat="48.97305" lon="2.11435">
        <ele>-9.99</ele>
        <time>2023-03-25T10:03:45Z</time>
      </trkpt>
      <trkpt lat="48.97304" lon="2.11439">
        <ele>-10.05</ele>
        <time>2023-03-25T10:03:46Z</time>
      </trkpt>
      <trkpt lat="48.97304" lon="2.11441">
        <ele>-9.97</ele>
        <time>2023-03-25T10:03:47Z</time>
      </trkpt>
      <trkpt lat="48.97304" lon="2.11444">
        <ele>-10.32</ele>
        <time>2023-03-25T10:03:48Z</time>
      </trkpt>
      <trkpt lat="48.97302" lon="2.11447">
        <ele>-9.61</ele>
        <time>2023-03-25T10:03:49Z</time>
      </trkpt>
      <trkpt lat="48.97302" lon="2.11449">
        <ele>-9.93</ele>
        <time>2023-03-25T10:03:50Z</time>
      </trkpt>
      <trkpt lat="48.97301" lon="2.11466">
        <ele>-9.57</ele>
        <time>2023-03-25T10:03:58Z</time>
      </trkpt>
      <trkpt lat="48.97299" lon="2.11473">
        <ele>-9.4</ele>
        <time>2023-03-25T10:04:01Z</time>
      </trkpt>
      <trkpt lat="48.97299" lon="2.11476">
        <ele>-9.64</ele>
        <time>2023-03-25T10:04:02Z</time>
      </trkpt>
      <trkpt lat="48.97298" lon="2.11483">
        <ele>-9.56</ele>
        <time>2023-03-25T10:04:05Z</time>
      </trkpt>
      <trkpt lat="48.97298" lon="2.11485">
        <ele>-10.04</ele>
        <time>2023-03-25T10:04:06Z</time>
      </trkpt>
      <trkpt lat="48.97296" lon="2.11493">
        <ele>-9.27</ele>
        <time>2023-03-25T10:04:09Z</time>
      </trkpt>
      <trkpt lat="48.97296" lon="2.11496">
        <ele>-9.05</ele>
        <time>2023-03-25T10:04:10Z</time>
      </trkpt>
      <trkpt lat="48.97295" lon="2.115">
        <ele>-9.04</ele>
        <time>2023-03-25T10:04:11Z</time>
      </trkpt>
      <trkpt lat="48.97294" lon="2.11502">
        <ele>-8.75</ele>
        <time>2023-03-25T10:04:12Z</time>
      </trkpt>
      <trkpt lat="48.97294" lon="2.11504">
        <ele>-8.88</ele>
        <time>2023-03-25T10:04:13Z</time>
      </trkpt>
      <trkpt lat="48.97293" lon="2.11506">
        <ele>-9.26</ele>
        <time>2023-03-25T10:04:14Z</time>
      </trkpt>
      <trkpt lat="48.97291" lon="2.11515">
        <ele>-9.14</ele>
        <time>2023-03-25T10:04:22Z</time>
      </trkpt>
      <trkpt lat="48.97289" lon="2.1152">
        <ele>-9.07</ele>
        <time>2023-03-25T10:04:25Z</time>
      </trkpt>
      <trkpt lat="48.97287" lon="2.11525">
        <ele>-8.49</ele>
        <time>2023-03-25T10:04:29Z</time>
      </trkpt>
      <trkpt lat="48.97285" lon="2.11531">
        <ele>-9.51</ele>
        <time>2023-03-25T10:04:33Z</time>
      </trkpt>
      <trkpt lat="48.97282" lon="2.11544">
        <ele>-9.23</ele>
        <time>2023-03-25T10:04:43Z</time>
      </trkpt>
      <trkpt lat="48.97283" lon="2.11547">
        <ele>-8.38</ele>
        <time>2023-03-25T10:05:08Z</time>
      </trkpt>
      <trkpt lat="48.97281" lon="2.11548">
        <ele>-8.85</ele>
        <time>2023-03-25T10:05:23Z</time>
      </trkpt>
      <trkpt lat="48.97275" lon="2.11551">
        <ele>-7.79</ele>
        <time>2023-03-25T10:05:43Z</time>
      </trkpt>
      <trkpt lat="48.97272" lon="2.11554">
        <ele>-8.15</ele>
        <time>2023-03-25T10:06:06Z</time>
      </trkpt>
      <trkpt lat="48.9727" lon="2.11555">
        <ele>-8.08</ele>
        <time>2023-03-25T10:06:30Z</time>
      </trkpt>
      <trkpt lat="48.97268" lon="2.11556">
        <ele>-7.42</ele>
        <time>2023-03-25T10:06:55Z</time>
      </trkpt>
      <trkpt lat="48.97267" lon="2.1155">
        <ele>-7.53</ele>
        <time>2023-03-25T10:07:08Z</time>
      </trkpt>
      <trkpt lat="48.97267" lon="2.11546">
        <ele>-6.95</ele>
        <time>2023-03-25T10:07:26Z</time>
      </trkpt>
      <trkpt lat="48.97266" lon="2.11536">
        <ele>-6.5</ele>
        <time>2023-03-25T10:07:37Z</time>
      </trkpt>
      <trkpt lat="48.97263" lon="2.11534">
        <ele>-6.64</ele>
        <time>2023-03-25T10:07:40Z</time>
      </trkpt>
      <trkpt lat="48.97262" lon="2.11534">
        <ele>-6.62</ele>
        <time>2023-03-25T10:07:41Z</time>
      </trkpt>
      <trkpt lat="48.97261" lon="2.11533">
        <ele>-6.6</ele>
        <time>2023-03-25T10:07:42Z</time>
      </trkpt>
      <trkpt lat="48.9725" lon="2.11524">
        <ele>-6.04</ele>
        <time>2023-03-25T10:07:53Z</time>
      </trkpt>
      <trkpt lat="48.97247" lon="2.11521">
        <ele>-6.55</ele>
        <time>2023-03-25T10:07:56Z</time>
      </trkpt>
      <trkpt lat="48.97245" lon="2.11519">
        <ele>-5.93</ele>
        <time>2023-03-25T10:07:58Z</time>
      </trkpt>
      <trkpt lat="48.97243" lon="2.11519">
        <ele>-5.62</ele>
        <time>2023-03-25T10:07:59Z</time>
      </trkpt>
      <trkpt lat="48.97242" lon="2.11518">
        <ele>-5.5</ele>
        <time>2023-03-25T10:08:00Z</time>
      </trkpt>
      <trkpt lat="48.97239" lon="2.11517">
        <ele>-5.56</ele>
        <time>2023-03-25T10:08:02Z</time>
      </trkpt>
      <trkpt lat="48.97223" lon="2.11504">
        <ele>-5.55</ele>
        <time>2023-03-25T10:08:13Z</time>
      </trkpt>
      <trkpt lat="48.97211" lon="2.11497">
        <ele>-5.83</ele>
        <time>2023-03-25T10:08:22Z</time>
      </trkpt>
      <trkpt lat="48.97198" lon="2.11486">
        <ele>-4.47</ele>
        <time>2023-03-25T10:08:33Z</time>
      </trkpt>
      <trkpt lat="48.97195" lon="2.11485">
        <ele>-5.08</ele>
        <time>2023-03-25T10:08:35Z</time>
      </trkpt>
      <trkpt lat="48.9718" lon="2.11476">
        <ele>-4.15</ele>
        <time>2023-03-25T10:08:46Z</time>
      </trkpt>
      <trkpt lat="48.97178" lon="2.11476">
        <ele>-4.13</ele>
        <time>2023-03-25T10:08:47Z</time>
      </trkpt>
      <trkpt lat="48.97176" lon="2.11475">
        <ele>-4.36</ele>
        <time>2023-03-25T10:08:49Z</time>
      </trkpt>
      <trkpt lat="48.97165" lon="2.11467">
        <ele>-3.96</ele>
        <time>2023-03-25T10:08:58Z</time>
      </trkpt>
      <trkpt lat="48.97153" lon="2.11458">
        <ele>-3.21</ele>
        <time>2023-03-25T10:09:09Z</time>
      </trkpt>
      <trkpt lat="48.97143" lon="2.11449">
        <ele>-1.66</ele>
        <time>2023-03-25T10:09:20Z</time>
      </trkpt>
      <trkpt lat="48.97123" lon="2.11442">
        <ele>-1.47</ele>
        <time>2023-03-25T10:09:34Z</time>
      </trkpt>
      <trkpt lat="48.97117" lon="2.11438">
        <ele>-1.48</ele>
        <time>2023-03-25T10:09:38Z</time>
      </trkpt>
      <trkpt lat="48.97114" lon="2.11437">
        <ele>-1.45</ele>
        <time>2023-03-25T10:09:40Z</time>
      </trkpt>
      <trkpt lat="48.97113" lon="2.11435">
        <ele>-1.95</ele>
        <time>2023-03-25T10:09:41Z</time>
      </trkpt>
      <trkpt lat="48.97099" lon="2.11423">
        <ele>-0.58</ele>
        <time>2023-03-25T10:09:51Z</time>
      </trkpt>
      <trkpt lat="48.97084" lon="2.11412">
        <ele>-0.13</ele>
        <time>2023-03-25T10:10:02Z</time>
      </trkpt>
      <trkpt lat="48.97074" lon="2.11407">
        <ele>0.39</ele>
        <time>2023-03-25T10:10:10Z</time>
      </trkpt>
      <trkpt lat="48.97062" lon="2.11392">
        <ele>2.61</ele>
        <time>2023-03-25T10:10:23Z</time>
      </trkpt>
      <trkpt lat="48.97046" lon="2.11377">
        <ele>4.05</ele>
        <time>2023-03-25T10:10:37Z</time>
      </trkpt>
      <trkpt lat="48.97045" lon="2.11377">
        <ele>3.83</ele>
        <time>2023-03-25T10:10:38Z</time>
      </trkpt>
      <trkpt lat="48.97044" lon="2.11376">
        <ele>4.09</ele>
        <time>2023-03-25T10:10:39Z</time>
      </trkpt>
      <trkpt lat="48.97042" lon="2.11376">
        <ele>3.62</ele>
        <time>2023-03-25T10:10:40Z</time>
      </trkpt>
      <trkpt lat="48.97027" lon="2.1137">
        <ele>4.08</ele>
        <time>2023-03-25T10:10:50Z</time>
      </trkpt>
      <trkpt lat="48.97024" lon="2.11368">
        <ele>3.78</ele>
        <time>2023-03-25T10:10:52Z</time>
      </trkpt>
      <trkpt lat="48.9702" lon="2.11367">
        <ele>4.47</ele>
        <time>2023-03-25T10:10:54Z</time>
      </trkpt>
      <trkpt lat="48.97019" lon="2.11365">
        <ele>4.19</ele>
        <time>2023-03-25T10:10:55Z</time>
      </trkpt>
      <trkpt lat="48.97013" lon="2.11362">
        <ele>4.08</ele>
        <time>2023-03-25T10:11:00Z</time>
      </trkpt>
      <trkpt lat="48.97011" lon="2.11361">
        <ele>4.02</ele>
        <time>2023-03-25T10:11:01Z</time>
      </trkpt>
      <trkpt lat="48.9701" lon="2.1136">
        <ele>4.46</ele>
        <time>2023-03-25T10:11:02Z</time>
      </trkpt>
      <trkpt lat="48.97008" lon="2.1136">
        <ele>4.72</ele>
        <time>2023-03-25T10:11:03Z</time>
      </trkpt>
      <trkpt lat="48.97006" lon="2.11359">
        <ele>4.93</ele>
        <time>2023-03-25T10:11:04Z</time>
      </trkpt>
      <trkpt lat="48.96995" lon="2.1135">
        <ele>5.69</ele>
        <time>2023-03-25T10:11:13Z</time>
      </trkpt>
      <trkpt lat="48.96981" lon="2.11337">
        <ele>5.67</ele>
        <time>2023-03-25T10:11:24Z</time>
      </trkpt>
      <trkpt lat="48.96968" lon="2.11332">
        <ele>5.83</ele>
        <time>2023-03-25T10:11:34Z</time>
      </trkpt>
      <trkpt lat="48.96951" lon="2.11318">
        <ele>6.21</ele>
        <time>2023-03-25T10:11:46Z</time>
      </trkpt>
      <trkpt lat="48.96938" lon="2.11314">
        <ele>6.42</ele>
        <time>2023-03-25T10:11:55Z</time>
      </trkpt>
      <trkpt lat="48.96935" lon="2.11312">
        <ele>7.37</ele>
        <time>2023-03-25T10:11:57Z</time>
      </trkpt>
      <trkpt lat="48.96934" lon="2.11311">
        <ele>7.05</ele>
        <time>2023-03-25T10:11:58Z</time>
      </trkpt>
      <trkpt lat="48.96918" lon="2.11307">
        <ele>6.98</ele>
        <time>2023-03-25T10:12:09Z</time>
      </trkpt>
      <trkpt lat="48.96911" lon="2.11302">
        <ele>7.08</ele>
        <time>2023-03-25T10:12:14Z</time>
      </trkpt>
      <trkpt lat="48.96908" lon="2.11297">
        <ele>7.37</ele>
        <time>2023-03-25T10:12:17Z</time>
      </trkpt>
      <trkpt lat="48.96895" lon="2.11287">
        <ele>8.09</ele>
        <time>2023-03-25T10:12:27Z</time>
      </trkpt>
      <trkpt lat="48.96886" lon="2.11279">
        <ele>8.59</ele>
        <time>2023-03-25T10:12:33Z</time>
      </trkpt>
      <trkpt lat="48.96884" lon="2.11279">
        <ele>7.98</ele>
        <time>2023-03-25T10:12:34Z</time>
      </trkpt>
      <trkpt lat="48.96875" lon="2.1127">
        <ele>8.32</ele>
        <time>2023-03-25T10:12:40Z</time>
      </trkpt>
      <trkpt lat="48.96861" lon="2.11267">
        <ele>9.05</ele>
        <time>2023-03-25T10:12:49Z</time>
      </trkpt>
      <trkpt lat="48.96847" lon="2.11262">
        <ele>9.45</ele>
        <time>2023-03-25T10:12:58Z</time>
      </trkpt>
      <trkpt lat="48.96838" lon="2.11255">
        <ele>10.02</ele>
        <time>2023-03-25T10:13:07Z</time>
      </trkpt>
      <trkpt lat="48.96827" lon="2.11245">
        <ele>10</ele>
        <time>2023-03-25T10:13:17Z</time>
      </trkpt>
      <trkpt lat="48.96825" lon="2.11243">
        <ele>10.14</ele>
        <time>2023-03-25T10:13:18Z</time>
      </trkpt>
      <trkpt lat="48.96823" lon="2.11242">
        <ele>10.43</ele>
        <time>2023-03-25T10:13:19Z</time>
      </trkpt>
      <trkpt lat="48.96822" lon="2.11241">
        <ele>10.27</ele>
        <time>2023-03-25T10:13:20Z</time>
      </trkpt>
      <trkpt lat="48.96806" lon="2.11228">
        <ele>11.31</ele>
        <time>2023-03-25T10:13:30Z</time>
      </trkpt>
      <trkpt lat="48.96797" lon="2.11224">
        <ele>11.49</ele>
        <time>2023-03-25T10:13:41Z</time>
      </trkpt>
      <trkpt lat="48.96791" lon="2.11221">
        <ele>10.66</ele>
        <time>2023-03-25T10:13:59Z</time>
      </trkpt>
      <trkpt lat="48.9679" lon="2.1122">
        <ele>11.29</ele>
        <time>2023-03-25T10:14:17Z</time>
      </trkpt>
      <trkpt lat="48.96788" lon="2.11222">
        <ele>12.64</ele>
        <time>2023-03-25T10:14:36Z</time>
      </trkpt>
      <trkpt lat="48.96789" lon="2.11223">
        <ele>12.44</ele>
        <time>2023-03-25T10:14:57Z</time>
      </trkpt>
      <trkpt lat="48.96789" lon="2.11224">
        <ele>12.8</ele>
        <time>2023-03-25T10:15:12Z</time>
      </trkpt>
      <trkpt lat="48.96789" lon="2.11228">
        <ele>11.84</ele>
        <time>2023-03-25T10:15:26Z</time>
      </trkpt>
      <trkpt lat="48.96789" lon="2.11235">
        <ele>12.07</ele>
        <time>2023-03-25T10:15:34Z</time>
      </trkpt>
      <trkpt lat="48.9679" lon="2.11239">
        <ele>12.35</ele>
        <time>2023-03-25T10:15:36Z</time>
      </trkpt>
      <trkpt lat="48.9679" lon="2.11241">
        <ele>12.16</ele>
        <time>2023-03-25T10:15:37Z</time>
      </trkpt>
      <trkpt lat="48.96789" lon="2.11252">
        <ele>12</ele>
        <time>2023-03-25T10:15:42Z</time>
      </trkpt>
      <trkpt lat="48.96789" lon="2.11254">
        <ele>12.31</ele>
        <time>2023-03-25T10:15:43Z</time>
      </trkpt>
      <trkpt lat="48.9679" lon="2.11256">
        <ele>12.34</ele>
        <time>2023-03-25T10:15:44Z</time>
      </trkpt>
      <trkpt lat="48.9679" lon="2.11258">
        <ele>12.37</ele>
        <time>2023-03-25T10:15:45Z</time>
      </trkpt>
      <trkpt lat="48.9679" lon="2.1126">
        <ele>12.37</ele>
        <time>2023-03-25T10:15:46Z</time>
      </trkpt>
      <trkpt lat="48.9679" lon="2.11262">
        <ele>12.39</ele>
        <time>2023-03-25T10:15:47Z</time>
      </trkpt>
      <trkpt lat="48.9679" lon="2.11264">
        <ele>12.4</ele>
        <time>2023-03-25T10:15:48Z</time>
      </trkpt>
      <trkpt lat="48.9679" lon="2.11271">
        <ele>12.44</ele>
        <time>2023-03-25T10:15:51Z</time>
      </trkpt>
      <trkpt lat="48.9679" lon="2.11273">
        <ele>12.45</ele>
        <time>2023-03-25T10:15:52Z</time>
      </trkpt>
      <trkpt lat="48.9679" lon="2.11276">
        <ele>12.46</ele>
        <time>2023-03-25T10:15:53Z</time>
      </trkpt>
      <trkpt lat="48.9679" lon="2.11282">
        <ele>11.88</ele>
        <time>2023-03-25T10:15:56Z</time>
      </trkpt>
      <trkpt lat="48.96791" lon="2.11283">
        <ele>11.73</ele>
        <time>2023-03-25T10:15:57Z</time>
      </trkpt>
      <trkpt lat="48.96791" lon="2.11287">
        <ele>11.97</ele>
        <time>2023-03-25T10:15:59Z</time>
      </trkpt>
      <trkpt lat="48.96791" lon="2.1129">
        <ele>12.38</ele>
        <time>2023-03-25T10:16:00Z</time>
      </trkpt>
      <trkpt lat="48.96791" lon="2.11292">
        <ele>11.95</ele>
        <time>2023-03-25T10:16:01Z</time>
      </trkpt>
      <trkpt lat="48.9679" lon="2.11313">
        <ele>11.87</ele>
        <time>2023-03-25T10:16:09Z</time>
      </trkpt>
      <trkpt lat="48.96793" lon="2.11325">
        <ele>12.06</ele>
        <time>2023-03-25T10:16:15Z</time>
      </trkpt>
      <trkpt lat="48.96793" lon="2.11328">
        <ele>11.61</ele>
        <time>2023-03-25T10:16:16Z</time>
      </trkpt>
      <trkpt lat="48.96794" lon="2.1133">
        <ele>12.23</ele>
        <time>2023-03-25T10:16:17Z</time>
      </trkpt>
      <trkpt lat="48.96794" lon="2.11333">
        <ele>11.76</ele>
        <time>2023-03-25T10:16:18Z</time>
      </trkpt>
      <trkpt lat="48.96794" lon="2.11335">
        <ele>11.92</ele>
        <time>2023-03-25T10:16:19Z</time>
      </trkpt>
      <trkpt lat="48.96794" lon="2.11339">
        <ele>11.57</ele>
        <time>2023-03-25T10:16:21Z</time>
      </trkpt>
      <trkpt lat="48.96798" lon="2.11353">
        <ele>11.65</ele>
        <time>2023-03-25T10:16:28Z</time>
      </trkpt>
      <trkpt lat="48.96798" lon="2.11357">
        <ele>11.67</ele>
        <time>2023-03-25T10:16:29Z</time>
      </trkpt>
      <trkpt lat="48.96798" lon="2.1136">
        <ele>11.81</ele>
        <time>2023-03-25T10:16:30Z</time>
      </trkpt>
      <trkpt lat="48.96797" lon="2.11363">
        <ele>11.79</ele>
        <time>2023-03-25T10:16:31Z</time>
      </trkpt>
      <trkpt lat="48.96798" lon="2.11367">
        <ele>11.48</ele>
        <time>2023-03-25T10:16:33Z</time>
      </trkpt>
      <trkpt lat="48.96799" lon="2.1137">
        <ele>11.52</ele>
        <time>2023-03-25T10:16:34Z</time>
      </trkpt>
      <trkpt lat="48.96801" lon="2.11382">
        <ele>11.23</ele>
        <time>2023-03-25T10:16:40Z</time>
      </trkpt>
      <trkpt lat="48.96802" lon="2.11385">
        <ele>11.01</ele>
        <time>2023-03-25T10:16:41Z</time>
      </trkpt>
      <trkpt lat="48.96801" lon="2.11388">
        <ele>10.94</ele>
        <time>2023-03-25T10:16:42Z</time>
      </trkpt>
      <trkpt lat="48.96801" lon="2.11394">
        <ele>11.1</ele>
        <time>2023-03-25T10:16:45Z</time>
      </trkpt>
      <trkpt lat="48.96801" lon="2.11397">
        <ele>10.73</ele>
        <time>2023-03-25T10:16:46Z</time>
      </trkpt>
      <trkpt lat="48.96801" lon="2.114">
        <ele>10.77</ele>
        <time>2023-03-25T10:16:47Z</time>
      </trkpt>
      <trkpt lat="48.96803" lon="2.11405">
        <ele>10.75</ele>
        <time>2023-03-25T10:16:49Z</time>
      </trkpt>
      <trkpt lat="48.96803" lon="2.11408">
        <ele>10.1</ele>
        <time>2023-03-25T10:16:50Z</time>
      </trkpt>
      <trkpt lat="48.96804" lon="2.11411">
        <ele>10.38</ele>
        <time>2023-03-25T10:16:51Z</time>
      </trkpt>
      <trkpt lat="48.96804" lon="2.11416">
        <ele>10.28</ele>
        <time>2023-03-25T10:16:53Z</time>
      </trkpt>
      <trkpt lat="48.96804" lon="2.11418">
        <ele>10.28</ele>
        <time>2023-03-25T10:16:54Z</time>
      </trkpt>
      <trkpt lat="48.96804" lon="2.11421">
        <ele>10.43</ele>
        <time>2023-03-25T10:16:55Z</time>
      </trkpt>
      <trkpt lat="48.96804" lon="2.11423">
        <ele>10.72</ele>
        <time>2023-03-25T10:16:56Z</time>
      </trkpt>
      <trkpt lat="48.96803" lon="2.11426">
        <ele>10.71</ele>
        <time>2023-03-25T10:16:57Z</time>
      </trkpt>
      <trkpt lat="48.96804" lon="2.11427">
        <ele>10.29</ele>
        <time>2023-03-25T10:16:58Z</time>
      </trkpt>
      <trkpt lat="48.96805" lon="2.11432">
        <ele>10.85</ele>
        <time>2023-03-25T10:17:00Z</time>
      </trkpt>
      <trkpt lat="48.96805" lon="2.11434">
        <ele>10.88</ele>
        <time>2023-03-25T10:17:01Z</time>
      </trkpt>
      <trkpt lat="48.96805" lon="2.11437">
        <ele>10.87</ele>
        <time>2023-03-25T10:17:02Z</time>
      </trkpt>
      <trkpt lat="48.96804" lon="2.11439">
        <ele>11.01</ele>
        <time>2023-03-25T10:17:03Z</time>
      </trkpt>
      <trkpt lat="48.96805" lon="2.11441">
        <ele>10.85</ele>
        <time>2023-03-25T10:17:04Z</time>
      </trkpt>
      <trkpt lat="48.96803" lon="2.11462">
        <ele>10.35</ele>
        <time>2023-03-25T10:17:13Z</time>
      </trkpt>
      <trkpt lat="48.96802" lon="2.11465">
        <ele>10.76</ele>
        <time>2023-03-25T10:17:14Z</time>
      </trkpt>
      <trkpt lat="48.96802" lon="2.11468">
        <ele>11.43</ele>
        <time>2023-03-25T10:17:15Z</time>
      </trkpt>
      <trkpt lat="48.96803" lon="2.11476">
        <ele>10.59</ele>
        <time>2023-03-25T10:17:18Z</time>
      </trkpt>
      <trkpt lat="48.96803" lon="2.11481">
        <ele>10.76</ele>
        <time>2023-03-25T10:17:20Z</time>
      </trkpt>
      <trkpt lat="48.96804" lon="2.11484">
        <ele>10.63</ele>
        <time>2023-03-25T10:17:21Z</time>
      </trkpt>
      <trkpt lat="48.96804" lon="2.11486">
        <ele>10.74</ele>
        <time>2023-03-25T10:17:22Z</time>
      </trkpt>
      <trkpt lat="48.96804" lon="2.11489">
        <ele>10.57</ele>
        <time>2023-03-25T10:17:23Z</time>
      </trkpt>
      <trkpt lat="48.96805" lon="2.11493">
        <ele>10.75</ele>
        <time>2023-03-25T10:17:24Z</time>
      </trkpt>
      <trkpt lat="48.96805" lon="2.11516">
        <ele>10.16</ele>
        <time>2023-03-25T10:17:34Z</time>
      </trkpt>
      <trkpt lat="48.96806" lon="2.11526">
        <ele>9.91</ele>
        <time>2023-03-25T10:17:38Z</time>
      </trkpt>
      <trkpt lat="48.96806" lon="2.11528">
        <ele>9.93</ele>
        <time>2023-03-25T10:17:39Z</time>
      </trkpt>
      <trkpt lat="48.96806" lon="2.11531">
        <ele>9.77</ele>
        <time>2023-03-25T10:17:40Z</time>
      </trkpt>
      <trkpt lat="48.96806" lon="2.11533">
        <ele>10.14</ele>
        <time>2023-03-25T10:17:41Z</time>
      </trkpt>
      <trkpt lat="48.96806" lon="2.11535">
        <ele>9.96</ele>
        <time>2023-03-25T10:17:42Z</time>
      </trkpt>
      <trkpt lat="48.96806" lon="2.11541">
        <ele>9.92</ele>
        <time>2023-03-25T10:17:44Z</time>
      </trkpt>
      <trkpt lat="48.96805" lon="2.11543">
        <ele>10.07</ele>
        <time>2023-03-25T10:17:45Z</time>
      </trkpt>
      <trkpt lat="48.96805" lon="2.11546">
        <ele>10.2</ele>
        <time>2023-03-25T10:17:46Z</time>
      </trkpt>
      <trkpt lat="48.96806" lon="2.11549">
        <ele>10.16</ele>
        <time>2023-03-25T10:17:47Z</time>
      </trkpt>
      <trkpt lat="48.96806" lon="2.11551">
        <ele>9.59</ele>
        <time>2023-03-25T10:17:48Z</time>
      </trkpt>
      <trkpt lat="48.96807" lon="2.11557">
        <ele>10.49</ele>
        <time>2023-03-25T10:17:51Z</time>
      </trkpt>
      <trkpt lat="48.96807" lon="2.11559">
        <ele>9.65</ele>
        <time>2023-03-25T10:17:52Z</time>
      </trkpt>
      <trkpt lat="48.96805" lon="2.11571">
        <ele>9.79</ele>
        <time>2023-03-25T10:17:56Z</time>
      </trkpt>
      <trkpt lat="48.96805" lon="2.11573">
        <ele>10.81</ele>
        <time>2023-03-25T10:17:57Z</time>
      </trkpt>
      <trkpt lat="48.96805" lon="2.11576">
        <ele>10.01</ele>
        <time>2023-03-25T10:17:58Z</time>
      </trkpt>
      <trkpt lat="48.96804" lon="2.11579">
        <ele>10.12</ele>
        <time>2023-03-25T10:17:59Z</time>
      </trkpt>
      <trkpt lat="48.96804" lon="2.11582">
        <ele>10.18</ele>
        <time>2023-03-25T10:18:00Z</time>
      </trkpt>
      <trkpt lat="48.96804" lon="2.11585">
        <ele>10.07</ele>
        <time>2023-03-25T10:18:01Z</time>
      </trkpt>
      <trkpt lat="48.96805" lon="2.11589">
        <ele>10.46</ele>
        <time>2023-03-25T10:18:02Z</time>
      </trkpt>
      <trkpt lat="48.96807" lon="2.116">
        <ele>10.03</ele>
        <time>2023-03-25T10:18:07Z</time>
      </trkpt>
      <trkpt lat="48.96808" lon="2.11626">
        <ele>9.47</ele>
        <time>2023-03-25T10:18:17Z</time>
      </trkpt>
      <trkpt lat="48.96808" lon="2.11628">
        <ele>9.3</ele>
        <time>2023-03-25T10:18:18Z</time>
      </trkpt>
      <trkpt lat="48.96808" lon="2.11631">
        <ele>9.63</ele>
        <time>2023-03-25T10:18:19Z</time>
      </trkpt>
      <trkpt lat="48.96807" lon="2.11635">
        <ele>9.4</ele>
        <time>2023-03-25T10:18:20Z</time>
      </trkpt>
      <trkpt lat="48.96808" lon="2.11638">
        <ele>9.67</ele>
        <time>2023-03-25T10:18:21Z</time>
      </trkpt>
      <trkpt lat="48.96808" lon="2.1164">
        <ele>9.91</ele>
        <time>2023-03-25T10:18:22Z</time>
      </trkpt>
      <trkpt lat="48.96809" lon="2.11642">
        <ele>10</ele>
        <time>2023-03-25T10:18:23Z</time>
      </trkpt>
      <trkpt lat="48.96809" lon="2.11643">
        <ele>9.81</ele>
        <time>2023-03-25T10:18:24Z</time>
      </trkpt>
      <trkpt lat="48.9681" lon="2.11645">
        <ele>9.96</ele>
        <time>2023-03-25T10:18:25Z</time>
      </trkpt>
      <trkpt lat="48.96809" lon="2.11648">
        <ele>10.01</ele>
        <time>2023-03-25T10:18:26Z</time>
      </trkpt>
      <trkpt lat="48.96809" lon="2.1165">
        <ele>9.34</ele>
        <time>2023-03-25T10:18:27Z</time>
      </trkpt>
      <trkpt lat="48.96809" lon="2.11652">
        <ele>9.25</ele>
        <time>2023-03-25T10:18:28Z</time>
      </trkpt>
      <trkpt lat="48.96809" lon="2.11654">
        <ele>9.26</ele>
        <time>2023-03-25T10:18:29Z</time>
      </trkpt>
      <trkpt lat="48.96809" lon="2.11656">
        <ele>9.45</ele>
        <time>2023-03-25T10:18:30Z</time>
      </trkpt>
      <trkpt lat="48.96809" lon="2.11659">
        <ele>9.62</ele>
        <time>2023-03-25T10:18:31Z</time>
      </trkpt>
      <trkpt lat="48.96809" lon="2.11661">
        <ele>9.19</ele>
        <time>2023-03-25T10:18:32Z</time>
      </trkpt>
      <trkpt lat="48.96809" lon="2.11664">
        <ele>9.52</ele>
        <time>2023-03-25T10:18:33Z</time>
      </trkpt>
      <trkpt lat="48.96809" lon="2.11665">
        <ele>9.57</ele>
        <time>2023-03-25T10:18:34Z</time>
      </trkpt>
      <trkpt lat="48.96809" lon="2.11668">
        <ele>9.51</ele>
        <time>2023-03-25T10:18:35Z</time>
      </trkpt>
      <trkpt lat="48.96809" lon="2.1167">
        <ele>9.35</ele>
        <time>2023-03-25T10:18:36Z</time>
      </trkpt>
      <trkpt lat="48.96809" lon="2.11672">
        <ele>9.22</ele>
        <time>2023-03-25T10:18:37Z</time>
      </trkpt>
      <trkpt lat="48.9681" lon="2.11674">
        <ele>9.33</ele>
        <time>2023-03-25T10:18:38Z</time>
      </trkpt>
      <trkpt lat="48.9681" lon="2.11676">
        <ele>9.51</ele>
        <time>2023-03-25T10:18:39Z</time>
      </trkpt>
      <trkpt lat="48.9681" lon="2.11678">
        <ele>9.25</ele>
        <time>2023-03-25T10:18:40Z</time>
      </trkpt>
      <trkpt lat="48.96811" lon="2.11693">
        <ele>9.24</ele>
        <time>2023-03-25T10:18:46Z</time>
      </trkpt>
      <trkpt lat="48.96811" lon="2.11696">
        <ele>9.25</ele>
        <time>2023-03-25T10:18:47Z</time>
      </trkpt>
      <trkpt lat="48.9681" lon="2.11707">
        <ele>9.4</ele>
        <time>2023-03-25T10:18:51Z</time>
      </trkpt>
      <trkpt lat="48.9681" lon="2.1171">
        <ele>8.95</ele>
        <time>2023-03-25T10:18:52Z</time>
      </trkpt>
      <trkpt lat="48.9681" lon="2.11713">
        <ele>8.8</ele>
        <time>2023-03-25T10:18:53Z</time>
      </trkpt>
      <trkpt lat="48.96811" lon="2.11716">
        <ele>8.98</ele>
        <time>2023-03-25T10:18:54Z</time>
      </trkpt>
      <trkpt lat="48.96811" lon="2.1172">
        <ele>8.95</ele>
        <time>2023-03-25T10:18:55Z</time>
      </trkpt>
      <trkpt lat="48.96812" lon="2.11721">
        <ele>8.26</ele>
        <time>2023-03-25T10:18:56Z</time>
      </trkpt>
      <trkpt lat="48.96812" lon="2.11723">
        <ele>8.38</ele>
        <time>2023-03-25T10:18:57Z</time>
      </trkpt>
      <trkpt lat="48.96813" lon="2.11726">
        <ele>8.74</ele>
        <time>2023-03-25T10:18:58Z</time>
      </trkpt>
      <trkpt lat="48.96813" lon="2.11729">
        <ele>8.56</ele>
        <time>2023-03-25T10:18:59Z</time>
      </trkpt>
      <trkpt lat="48.96813" lon="2.11732">
        <ele>8.47</ele>
        <time>2023-03-25T10:19:00Z</time>
      </trkpt>
      <trkpt lat="48.96813" lon="2.11734">
        <ele>8.61</ele>
        <time>2023-03-25T10:19:01Z</time>
      </trkpt>
      <trkpt lat="48.96813" lon="2.11736">
        <ele>8.68</ele>
        <time>2023-03-25T10:19:02Z</time>
      </trkpt>
      <trkpt lat="48.96813" lon="2.11738">
        <ele>8.87</ele>
        <time>2023-03-25T10:19:03Z</time>
      </trkpt>
      <trkpt lat="48.96813" lon="2.1174">
        <ele>8.64</ele>
        <time>2023-03-25T10:19:04Z</time>
      </trkpt>
      <trkpt lat="48.96813" lon="2.11756">
        <ele>8.48</ele>
        <time>2023-03-25T10:19:12Z</time>
      </trkpt>
      <trkpt lat="48.96814" lon="2.11759">
        <ele>8.58</ele>
        <time>2023-03-25T10:19:13Z</time>
      </trkpt>
      <trkpt lat="48.96814" lon="2.11761">
        <ele>8.33</ele>
        <time>2023-03-25T10:19:14Z</time>
      </trkpt>
      <trkpt lat="48.96814" lon="2.11764">
        <ele>7.84</ele>
        <time>2023-03-25T10:19:15Z</time>
      </trkpt>
      <trkpt lat="48.96814" lon="2.11766">
        <ele>7.88</ele>
        <time>2023-03-25T10:19:16Z</time>
      </trkpt>
      <trkpt lat="48.96815" lon="2.11768">
        <ele>8.18</ele>
        <time>2023-03-25T10:19:17Z</time>
      </trkpt>
      <trkpt lat="48.96816" lon="2.11771">
        <ele>8.19</ele>
        <time>2023-03-25T10:19:18Z</time>
      </trkpt>
      <trkpt lat="48.96816" lon="2.11773">
        <ele>8.08</ele>
        <time>2023-03-25T10:19:19Z</time>
      </trkpt>
      <trkpt lat="48.96816" lon="2.11776">
        <ele>8.1</ele>
        <time>2023-03-25T10:19:20Z</time>
      </trkpt>
      <trkpt lat="48.96816" lon="2.11779">
        <ele>7.39</ele>
        <time>2023-03-25T10:19:21Z</time>
      </trkpt>
      <trkpt lat="48.96815" lon="2.11782">
        <ele>7.66</ele>
        <time>2023-03-25T10:19:22Z</time>
      </trkpt>
      <trkpt lat="48.96815" lon="2.11785">
        <ele>7.51</ele>
        <time>2023-03-25T10:19:23Z</time>
      </trkpt>
      <trkpt lat="48.96815" lon="2.11788">
        <ele>7.77</ele>
        <time>2023-03-25T10:19:24Z</time>
      </trkpt>
      <trkpt lat="48.96816" lon="2.11792">
        <ele>6.56</ele>
        <time>2023-03-25T10:19:26Z</time>
      </trkpt>
      <trkpt lat="48.96816" lon="2.11795">
        <ele>6.58</ele>
        <time>2023-03-25T10:19:27Z</time>
      </trkpt>
      <trkpt lat="48.96816" lon="2.11797">
        <ele>6.58</ele>
        <time>2023-03-25T10:19:28Z</time>
      </trkpt>
      <trkpt lat="48.96816" lon="2.118">
        <ele>6.6</ele>
        <time>2023-03-25T10:19:29Z</time>
      </trkpt>
      <trkpt lat="48.96817" lon="2.11802">
        <ele>6.6</ele>
        <time>2023-03-25T10:19:30Z</time>
      </trkpt>
      <trkpt lat="48.96817" lon="2.11804">
        <ele>6.61</ele>
        <time>2023-03-25T10:19:31Z</time>
      </trkpt>
      <trkpt lat="48.96817" lon="2.11807">
        <ele>6.62</ele>
        <time>2023-03-25T10:19:32Z</time>
      </trkpt>
      <trkpt lat="48.96817" lon="2.11809">
        <ele>6.63</ele>
        <time>2023-03-25T10:19:33Z</time>
      </trkpt>
      <trkpt lat="48.96817" lon="2.11831">
        <ele>6.84</ele>
        <time>2023-03-25T10:19:42Z</time>
      </trkpt>
      <trkpt lat="48.96819" lon="2.1186">
        <ele>6.67</ele>
        <time>2023-03-25T10:19:53Z</time>
      </trkpt>
      <trkpt lat="48.9682" lon="2.11868">
        <ele>6.18</ele>
        <time>2023-03-25T10:19:57Z</time>
      </trkpt>
      <trkpt lat="48.9682" lon="2.1187">
        <ele>6.66</ele>
        <time>2023-03-25T10:19:58Z</time>
      </trkpt>
      <trkpt lat="48.96821" lon="2.11878">
        <ele>6.01</ele>
        <time>2023-03-25T10:20:02Z</time>
      </trkpt>
      <trkpt lat="48.96821" lon="2.1188">
        <ele>5.44</ele>
        <time>2023-03-25T10:20:03Z</time>
      </trkpt>
      <trkpt lat="48.96821" lon="2.11883">
        <ele>5.45</ele>
        <time>2023-03-25T10:20:04Z</time>
      </trkpt>
      <trkpt lat="48.96821" lon="2.11887">
        <ele>5.5</ele>
        <time>2023-03-25T10:20:06Z</time>
      </trkpt>
      <trkpt lat="48.96819" lon="2.11897">
        <ele>6.12</ele>
        <time>2023-03-25T10:20:11Z</time>
      </trkpt>
      <trkpt lat="48.96818" lon="2.11911">
        <ele>6.97</ele>
        <time>2023-03-25T10:20:21Z</time>
      </trkpt>
      <trkpt lat="48.96816" lon="2.1191">
        <ele>7.31</ele>
        <time>2023-03-25T10:20:36Z</time>
      </trkpt>
      <trkpt lat="48.9681" lon="2.11916">
        <ele>6.83</ele>
        <time>2023-03-25T10:20:51Z</time>
      </trkpt>
      <trkpt lat="48.96809" lon="2.11918">
        <ele>7.06</ele>
        <time>2023-03-25T10:20:52Z</time>
      </trkpt>
      <trkpt lat="48.96808" lon="2.1192">
        <ele>7.37</ele>
        <time>2023-03-25T10:20:53Z</time>
      </trkpt>
      <trkpt lat="48.96803" lon="2.11928">
        <ele>7.06</ele>
        <time>2023-03-25T10:21:03Z</time>
      </trkpt>
      <trkpt lat="48.96793" lon="2.11942">
        <ele>7.61</ele>
        <time>2023-03-25T10:21:15Z</time>
      </trkpt>
      <trkpt lat="48.96784" lon="2.11956">
        <ele>7.56</ele>
        <time>2023-03-25T10:21:25Z</time>
      </trkpt>
      <trkpt lat="48.96766" lon="2.11974">
        <ele>8.01</ele>
        <time>2023-03-25T10:21:38Z</time>
      </trkpt>
      <trkpt lat="48.96765" lon="2.11975">
        <ele>8.03</ele>
        <time>2023-03-25T10:21:39Z</time>
      </trkpt>
      <trkpt lat="48.96761" lon="2.11981">
        <ele>7.79</ele>
        <time>2023-03-25T10:21:43Z</time>
      </trkpt>
      <trkpt lat="48.96752" lon="2.1199">
        <ele>8.56</ele>
        <time>2023-03-25T10:21:54Z</time>
      </trkpt>
      <trkpt lat="48.96745" lon="2.11994">
        <ele>8.81</ele>
        <time>2023-03-25T10:22:01Z</time>
      </trkpt>
      <trkpt lat="48.96742" lon="2.11994">
        <ele>9.11</ele>
        <time>2023-03-25T10:22:03Z</time>
      </trkpt>
      <trkpt lat="48.96731" lon="2.12007">
        <ele>8.92</ele>
        <time>2023-03-25T10:22:13Z</time>
      </trkpt>
      <trkpt lat="48.96729" lon="2.12008">
        <ele>8.96</ele>
        <time>2023-03-25T10:22:14Z</time>
      </trkpt>
      <trkpt lat="48.96723" lon="2.12016">
        <ele>8.96</ele>
        <time>2023-03-25T10:22:20Z</time>
      </trkpt>
      <trkpt lat="48.96719" lon="2.12026">
        <ele>8.27</ele>
        <time>2023-03-25T10:22:25Z</time>
      </trkpt>
      <trkpt lat="48.96717" lon="2.12028">
        <ele>8.5</ele>
        <time>2023-03-25T10:22:26Z</time>
      </trkpt>
      <trkpt lat="48.96715" lon="2.12031">
        <ele>8.21</ele>
        <time>2023-03-25T10:22:28Z</time>
      </trkpt>
      <trkpt lat="48.96709" lon="2.12048">
        <ele>9.47</ele>
        <time>2023-03-25T10:22:38Z</time>
      </trkpt>
      <trkpt lat="48.96705" lon="2.12066">
        <ele>9.54</ele>
        <time>2023-03-25T10:22:46Z</time>
      </trkpt>
      <trkpt lat="48.967" lon="2.12083">
        <ele>9.32</ele>
        <time>2023-03-25T10:22:56Z</time>
      </trkpt>
      <trkpt lat="48.96692" lon="2.12102">
        <ele>10.63</ele>
        <time>2023-03-25T10:23:08Z</time>
      </trkpt>
      <trkpt lat="48.96681" lon="2.12122">
        <ele>10.29</ele>
        <time>2023-03-25T10:23:18Z</time>
      </trkpt>
      <trkpt lat="48.96671" lon="2.12133">
        <ele>9.7</ele>
        <time>2023-03-25T10:23:26Z</time>
      </trkpt>
      <trkpt lat="48.96669" lon="2.12137">
        <ele>10.2</ele>
        <time>2023-03-25T10:23:29Z</time>
      </trkpt>
      <trkpt lat="48.96668" lon="2.12138">
        <ele>9.71</ele>
        <time>2023-03-25T10:23:30Z</time>
      </trkpt>
      <trkpt lat="48.96656" lon="2.12157">
        <ele>10.23</ele>
        <time>2023-03-25T10:23:42Z</time>
      </trkpt>
      <trkpt lat="48.96655" lon="2.1216">
        <ele>10.59</ele>
        <time>2023-03-25T10:23:43Z</time>
      </trkpt>
      <trkpt lat="48.96651" lon="2.12176">
        <ele>9.82</ele>
        <time>2023-03-25T10:23:54Z</time>
      </trkpt>
      <trkpt lat="48.9665" lon="2.12181">
        <ele>9.62</ele>
        <time>2023-03-25T10:23:56Z</time>
      </trkpt>
      <trkpt lat="48.96649" lon="2.12183">
        <ele>9.43</ele>
        <time>2023-03-25T10:23:57Z</time>
      </trkpt>
      <trkpt lat="48.96648" lon="2.12186">
        <ele>9.94</ele>
        <time>2023-03-25T10:23:58Z</time>
      </trkpt>
      <trkpt lat="48.96647" lon="2.12189">
        <ele>10.05</ele>
        <time>2023-03-25T10:23:59Z</time>
      </trkpt>
      <trkpt lat="48.96647" lon="2.12192">
        <ele>10.09</ele>
        <time>2023-03-25T10:24:00Z</time>
      </trkpt>
      <trkpt lat="48.96645" lon="2.12196">
        <ele>9.76</ele>
        <time>2023-03-25T10:24:01Z</time>
      </trkpt>
      <trkpt lat="48.96643" lon="2.12203">
        <ele>9.6</ele>
        <time>2023-03-25T10:24:04Z</time>
      </trkpt>
      <trkpt lat="48.96642" lon="2.12205">
        <ele>9.53</ele>
        <time>2023-03-25T10:24:05Z</time>
      </trkpt>
      <trkpt lat="48.96641" lon="2.12209">
        <ele>9.78</ele>
        <time>2023-03-25T10:24:06Z</time>
      </trkpt>
      <trkpt lat="48.9664" lon="2.12213">
        <ele>9.64</ele>
        <time>2023-03-25T10:24:08Z</time>
      </trkpt>
      <trkpt lat="48.96639" lon="2.12216">
        <ele>9.27</ele>
        <time>2023-03-25T10:24:09Z</time>
      </trkpt>
      <trkpt lat="48.96638" lon="2.12218">
        <ele>9.67</ele>
        <time>2023-03-25T10:24:10Z</time>
      </trkpt>
      <trkpt lat="48.96629" lon="2.12231">
        <ele>9.18</ele>
        <time>2023-03-25T10:24:21Z</time>
      </trkpt>
      <trkpt lat="48.96627" lon="2.12232">
        <ele>8.54</ele>
        <time>2023-03-25T10:24:22Z</time>
      </trkpt>
      <trkpt lat="48.96626" lon="2.12234">
        <ele>9.21</ele>
        <time>2023-03-25T10:24:23Z</time>
      </trkpt>
      <trkpt lat="48.96623" lon="2.12238">
        <ele>9.05</ele>
        <time>2023-03-25T10:24:25Z</time>
      </trkpt>
      <trkpt lat="48.96622" lon="2.12239">
        <ele>9.27</ele>
        <time>2023-03-25T10:24:26Z</time>
      </trkpt>
      <trkpt lat="48.96612" lon="2.12252">
        <ele>9.84</ele>
        <time>2023-03-25T10:24:35Z</time>
      </trkpt>
      <trkpt lat="48.96605" lon="2.12258">
        <ele>9.45</ele>
        <time>2023-03-25T10:24:40Z</time>
      </trkpt>
      <trkpt lat="48.96602" lon="2.1226">
        <ele>9.71</ele>
        <time>2023-03-25T10:24:42Z</time>
      </trkpt>
      <trkpt lat="48.966" lon="2.12261">
        <ele>9.36</ele>
        <time>2023-03-25T10:24:43Z</time>
      </trkpt>
      <trkpt lat="48.96591" lon="2.12271">
        <ele>9.35</ele>
        <time>2023-03-25T10:24:51Z</time>
      </trkpt>
      <trkpt lat="48.96575" lon="2.1228">
        <ele>9.12</ele>
        <time>2023-03-25T10:25:03Z</time>
      </trkpt>
      <trkpt lat="48.96561" lon="2.12295">
        <ele>9.38</ele>
        <time>2023-03-25T10:25:18Z</time>
      </trkpt>
      <trkpt lat="48.96544" lon="2.12313">
        <ele>9.67</ele>
        <time>2023-03-25T10:25:34Z</time>
      </trkpt>
      <trkpt lat="48.96538" lon="2.12321">
        <ele>9.32</ele>
        <time>2023-03-25T10:25:39Z</time>
      </trkpt>
      <trkpt lat="48.96521" lon="2.12341">
        <ele>8.96</ele>
        <time>2023-03-25T10:25:53Z</time>
      </trkpt>
      <trkpt lat="48.96506" lon="2.12356">
        <ele>9.42</ele>
        <time>2023-03-25T10:26:07Z</time>
      </trkpt>
      <trkpt lat="48.96505" lon="2.12358">
        <ele>9.12</ele>
        <time>2023-03-25T10:26:09Z</time>
      </trkpt>
      <trkpt lat="48.96504" lon="2.12359">
        <ele>8.88</ele>
        <time>2023-03-25T10:26:10Z</time>
      </trkpt>
      <trkpt lat="48.96501" lon="2.12362">
        <ele>9.11</ele>
        <time>2023-03-25T10:26:15Z</time>
      </trkpt>
      <trkpt lat="48.965" lon="2.12362">
        <ele>8.63</ele>
        <time>2023-03-25T10:26:16Z</time>
      </trkpt>
      <trkpt lat="48.96493" lon="2.12369">
        <ele>9.83</ele>
        <time>2023-03-25T10:26:34Z</time>
      </trkpt>
      <trkpt lat="48.96491" lon="2.12361">
        <ele>10.47</ele>
        <time>2023-03-25T10:26:56Z</time>
      </trkpt>
      <trkpt lat="48.96488" lon="2.1236">
        <ele>10.25</ele>
        <time>2023-03-25T10:27:18Z</time>
      </trkpt>
      <trkpt lat="48.96488" lon="2.12358">
        <ele>10.59</ele>
        <time>2023-03-25T10:27:42Z</time>
      </trkpt>
      <trkpt lat="48.96477" lon="2.12363">
        <ele>11.5</ele>
        <time>2023-03-25T10:27:59Z</time>
      </trkpt>
      <trkpt lat="48.96463" lon="2.1237">
        <ele>10.93</ele>
        <time>2023-03-25T10:28:16Z</time>
      </trkpt>
      <trkpt lat="48.96446" lon="2.12384">
        <ele>11.49</ele>
        <time>2023-03-25T10:28:30Z</time>
      </trkpt>
      <trkpt lat="48.96425" lon="2.12398">
        <ele>11.82</ele>
        <time>2023-03-25T10:28:46Z</time>
      </trkpt>
      <trkpt lat="48.96406" lon="2.1241">
        <ele>11.94</ele>
        <time>2023-03-25T10:29:01Z</time>
      </trkpt>
      <trkpt lat="48.96395" lon="2.12419">
        <ele>11.25</ele>
        <time>2023-03-25T10:29:09Z</time>
      </trkpt>
      <trkpt lat="48.96394" lon="2.1242">
        <ele>11.08</ele>
        <time>2023-03-25T10:29:10Z</time>
      </trkpt>
      <trkpt lat="48.96376" lon="2.12436">
        <ele>12.11</ele>
        <time>2023-03-25T10:29:25Z</time>
      </trkpt>
      <trkpt lat="48.96359" lon="2.12451">
        <ele>11.65</ele>
        <time>2023-03-25T10:29:38Z</time>
      </trkpt>
      <trkpt lat="48.96341" lon="2.12468">
        <ele>11.29</ele>
        <time>2023-03-25T10:29:51Z</time>
      </trkpt>
      <trkpt lat="48.96327" lon="2.12481">
        <ele>11.78</ele>
        <time>2023-03-25T10:30:04Z</time>
      </trkpt>
      <trkpt lat="48.96307" lon="2.12501">
        <ele>11.3</ele>
        <time>2023-03-25T10:30:19Z</time>
      </trkpt>
      <trkpt lat="48.96291" lon="2.12517">
        <ele>10.14</ele>
        <time>2023-03-25T10:30:33Z</time>
      </trkpt>
      <trkpt lat="48.96275" lon="2.12539">
        <ele>10.83</ele>
        <time>2023-03-25T10:30:48Z</time>
      </trkpt>
      <trkpt lat="48.9627" lon="2.12546">
        <ele>10.85</ele>
        <time>2023-03-25T10:30:52Z</time>
      </trkpt>
      <trkpt lat="48.96258" lon="2.12563">
        <ele>10.61</ele>
        <time>2023-03-25T10:31:04Z</time>
      </trkpt>
      <trkpt lat="48.9624" lon="2.12582">
        <ele>9.53</ele>
        <time>2023-03-25T10:31:20Z</time>
      </trkpt>
      <trkpt lat="48.96235" lon="2.12587">
        <ele>10.43</ele>
        <time>2023-03-25T10:31:24Z</time>
      </trkpt>
      <trkpt lat="48.96225" lon="2.12601">
        <ele>9.62</ele>
        <time>2023-03-25T10:31:35Z</time>
      </trkpt>
      <trkpt lat="48.96215" lon="2.12616">
        <ele>9.95</ele>
        <time>2023-03-25T10:31:45Z</time>
      </trkpt>
      <trkpt lat="48.96212" lon="2.1262">
        <ele>9.66</ele>
        <time>2023-03-25T10:31:48Z</time>
      </trkpt>
      <trkpt lat="48.96212" lon="2.12622">
        <ele>9.89</ele>
        <time>2023-03-25T10:31:49Z</time>
      </trkpt>
      <trkpt lat="48.96199" lon="2.12636">
        <ele>9.69</ele>
        <time>2023-03-25T10:32:00Z</time>
      </trkpt>
      <trkpt lat="48.96185" lon="2.12649">
        <ele>9.61</ele>
        <time>2023-03-25T10:32:13Z</time>
      </trkpt>
      <trkpt lat="48.96174" lon="2.12667">
        <ele>9.68</ele>
        <time>2023-03-25T10:32:26Z</time>
      </trkpt>
      <trkpt lat="48.96173" lon="2.12676">
        <ele>9.39</ele>
        <time>2023-03-25T10:32:30Z</time>
      </trkpt>
      <trkpt lat="48.96171" lon="2.12681">
        <ele>9.72</ele>
        <time>2023-03-25T10:32:32Z</time>
      </trkpt>
      <trkpt lat="48.9617" lon="2.12684">
        <ele>9.17</ele>
        <time>2023-03-25T10:32:33Z</time>
      </trkpt>
      <trkpt lat="48.9617" lon="2.12686">
        <ele>9.26</ele>
        <time>2023-03-25T10:32:34Z</time>
      </trkpt>
      <trkpt lat="48.96167" lon="2.127">
        <ele>9.5</ele>
        <time>2023-03-25T10:32:43Z</time>
      </trkpt>
      <trkpt lat="48.96162" lon="2.12722">
        <ele>8.31</ele>
        <time>2023-03-25T10:32:56Z</time>
      </trkpt>
      <trkpt lat="48.96162" lon="2.12724">
        <ele>8.71</ele>
        <time>2023-03-25T10:32:57Z</time>
      </trkpt>
      <trkpt lat="48.96158" lon="2.12741">
        <ele>8.2</ele>
        <time>2023-03-25T10:33:05Z</time>
      </trkpt>
      <trkpt lat="48.96153" lon="2.12759">
        <ele>8.31</ele>
        <time>2023-03-25T10:33:16Z</time>
      </trkpt>
      <trkpt lat="48.96154" lon="2.12778">
        <ele>9.11</ele>
        <time>2023-03-25T10:33:29Z</time>
      </trkpt>
      <trkpt lat="48.96157" lon="2.12785">
        <ele>9.18</ele>
        <time>2023-03-25T10:33:37Z</time>
      </trkpt>
    </trkseg>
  </trk>
</gpx>